﻿<?xml version="1.0" encoding="UTF-8" standalone="no"?>
<gpx xmlns="http://www.topografix.com/GPX/1/1" creator="GPS-Track-Analyse.NET 4.x" version="1.1" xmlns:xsi="http://www.w3.org/2001/XMLSchema-instance" xsi:schemaLocation="http://www.topografix.com/GPX/1/1 http://www.topografix.com/GPX/1/1/gpx.xsd">
<metadata>
<link href="http://www.gps-freeware.de">
<text>Download GPS-Track-Analyse</text>
</link>
<time>2009-07-14T18:34:06.224Z</time>
<bounds maxlat="28.122843" maxlon="-17.251810" minlat="28.109897" minlon="-17.287892" />
</metadata>
<wpt lat="28.109963" lon="-17.281930">
<ele>748.523700</ele>
<time>2009-06-06T10:15:25.000Z</time>
<name>001</name>
<cmt>06-JUN-09 5:15:38</cmt>
<sym>Flag, Blue</sym>
</wpt>
<wpt lat="28.110791" lon="-17.276111">
<ele>816.777300</ele>
<time>2009-06-06T10:35:52.000Z</time>
<name>002</name>
<cmt>06-JUN-09 5:40:21</cmt>
<sym>Flag, Blue</sym>
</wpt>
<wpt lat="28.113474" lon="-17.270549">
<ele>783.131100</ele>
<time>2009-06-06T10:52:54.000Z</time>
<name>003</name>
<cmt>06-JUN-09 5:54:57</cmt>
<sym>Flag, Blue</sym>
</wpt>
<wpt lat="28.114026" lon="-17.271459">
<ele>782.650600</ele>
<time>2009-06-06T11:34:07.000Z</time>
<name>005</name>
<cmt>06-JUN-09 6:35:22</cmt>
<sym>Flag, Blue</sym>
</wpt>
<wpt lat="28.114347" lon="-17.261630">
<ele>915.312500</ele>
<time>2009-06-06T12:10:18.000Z</time>
<name>006</name>
<cmt>06-JUN-09 7:12:38</cmt>
<sym>Flag, Blue</sym>
</wpt>
<wpt lat="28.114660" lon="-17.259719">
<ele>925.887000</ele>
<time>2009-06-06T12:15:04.000Z</time>
<name>007</name>
<cmt>06-JUN-09 7:16:19</cmt>
<sym>Flag, Blue</sym>
</wpt>
<wpt lat="28.119035" lon="-17.254999">
<ele>1252.735000</ele>
<time>2009-06-06T12:54:34.000Z</time>
<name>008</name>
<cmt>06-JUN-09 7:58:20</cmt>
<sym>Flag, Blue</sym>
</wpt>
<wpt lat="28.119966" lon="-17.252486">
<ele>1254.177000</ele>
<time>2009-06-06T13:09:12.000Z</time>
<name>009</name>
<cmt>06-JUN-09 8:10:32</cmt>
<sym>Flag, Blue</sym>
</wpt>
<wpt lat="28.122659" lon="-17.263860">
<ele>1172.465000</ele>
<time>2009-06-06T13:33:01.000Z</time>
<name>010</name>
<cmt>06-JUN-09 8:34:19</cmt>
<sym>Flag, Blue</sym>
</wpt>
<wpt lat="28.118571" lon="-17.285545">
<ele>1039.323000</ele>
<time>2009-06-06T14:34:11.000Z</time>
<name>011</name>
<cmt>06-JUN-09 9:57:59</cmt>
<sym>Flag, Blue</sym>
</wpt>
<trk>
<name>ACTIVE LOG</name>
<trkseg>
<trkpt lat="28.109963" lon="-17.281930">
<ele>748.523700</ele>
<time>2009-06-06T10:15:25.000Z</time>
</trkpt>
<trkpt lat="28.109964" lon="-17.281930">
<ele>748.523700</ele>
<time>2009-06-06T10:15:26.000Z</time>
</trkpt>
<trkpt lat="28.109965" lon="-17.281930">
<ele>748.523700</ele>
<time>2009-06-06T10:15:27.000Z</time>
</trkpt>
<trkpt lat="28.109989" lon="-17.281942">
<ele>749.004400</ele>
<time>2009-06-06T10:16:07.000Z</time>
</trkpt>
<trkpt lat="28.109916" lon="-17.281790">
<ele>749.485100</ele>
<time>2009-06-06T10:17:20.000Z</time>
</trkpt>
<trkpt lat="28.109897" lon="-17.281755">
<ele>749.485100</ele>
<time>2009-06-06T10:17:47.000Z</time>
</trkpt>
<trkpt lat="28.109915" lon="-17.281673">
<ele>749.485100</ele>
<time>2009-06-06T10:19:02.000Z</time>
</trkpt>
<trkpt lat="28.109958" lon="-17.281683">
<ele>750.446500</ele>
<time>2009-06-06T10:20:18.000Z</time>
</trkpt>
<trkpt lat="28.110007" lon="-17.281592">
<ele>751.407700</ele>
<time>2009-06-06T10:20:34.000Z</time>
</trkpt>
<trkpt lat="28.109946" lon="-17.281471">
<ele>753.330300</ele>
<time>2009-06-06T10:20:55.000Z</time>
</trkpt>
<trkpt lat="28.109991" lon="-17.281383">
<ele>753.811000</ele>
<time>2009-06-06T10:21:14.000Z</time>
</trkpt>
<trkpt lat="28.110056" lon="-17.281239">
<ele>754.772200</ele>
<time>2009-06-06T10:21:33.000Z</time>
</trkpt>
<trkpt lat="28.110140" lon="-17.281071">
<ele>757.175500</ele>
<time>2009-06-06T10:21:49.000Z</time>
</trkpt>
<trkpt lat="28.110103" lon="-17.280951">
<ele>759.578900</ele>
<time>2009-06-06T10:22:07.000Z</time>
</trkpt>
<trkpt lat="28.110166" lon="-17.280737">
<ele>762.462600</ele>
<time>2009-06-06T10:22:27.000Z</time>
</trkpt>
<trkpt lat="28.110198" lon="-17.280640">
<ele>763.904500</ele>
<time>2009-06-06T10:22:50.000Z</time>
</trkpt>
<trkpt lat="28.110207" lon="-17.280566">
<ele>764.866200</ele>
<time>2009-06-06T10:22:57.000Z</time>
</trkpt>
<trkpt lat="28.110258" lon="-17.280500">
<ele>766.788800</ele>
<time>2009-06-06T10:23:05.000Z</time>
</trkpt>
<trkpt lat="28.110257" lon="-17.280478">
<ele>767.750000</ele>
<time>2009-06-06T10:23:07.000Z</time>
</trkpt>
<trkpt lat="28.110235" lon="-17.280434">
<ele>767.750000</ele>
<time>2009-06-06T10:23:10.000Z</time>
</trkpt>
<trkpt lat="28.110291" lon="-17.280347">
<ele>770.153300</ele>
<time>2009-06-06T10:23:24.000Z</time>
</trkpt>
<trkpt lat="28.110353" lon="-17.280184">
<ele>771.595200</ele>
<time>2009-06-06T10:23:43.000Z</time>
</trkpt>
<trkpt lat="28.110424" lon="-17.280035">
<ele>772.556600</ele>
<time>2009-06-06T10:24:00.000Z</time>
</trkpt>
<trkpt lat="28.110524" lon="-17.279880">
<ele>773.998500</ele>
<time>2009-06-06T10:24:19.000Z</time>
</trkpt>
<trkpt lat="28.110552" lon="-17.279741">
<ele>775.440400</ele>
<time>2009-06-06T10:24:37.000Z</time>
</trkpt>
<trkpt lat="28.110553" lon="-17.279541">
<ele>776.401900</ele>
<time>2009-06-06T10:24:54.000Z</time>
</trkpt>
<trkpt lat="28.110560" lon="-17.279430">
<ele>776.882600</ele>
<time>2009-06-06T10:25:05.000Z</time>
</trkpt>
<trkpt lat="28.110572" lon="-17.279312">
<ele>778.805200</ele>
<time>2009-06-06T10:25:21.000Z</time>
</trkpt>
<trkpt lat="28.110553" lon="-17.279262">
<ele>780.247300</ele>
<time>2009-06-06T10:25:37.000Z</time>
</trkpt>
<trkpt lat="28.110528" lon="-17.279082">
<ele>782.169900</ele>
<time>2009-06-06T10:25:56.000Z</time>
</trkpt>
<trkpt lat="28.110484" lon="-17.279020">
<ele>782.169900</ele>
<time>2009-06-06T10:26:16.000Z</time>
</trkpt>
<trkpt lat="28.110494" lon="-17.278919">
<ele>784.092500</ele>
<time>2009-06-06T10:26:52.000Z</time>
</trkpt>
<trkpt lat="28.110510" lon="-17.278886">
<ele>784.573200</ele>
<time>2009-06-06T10:26:55.000Z</time>
</trkpt>
<trkpt lat="28.110518" lon="-17.278718">
<ele>785.054000</ele>
<time>2009-06-06T10:27:09.000Z</time>
</trkpt>
<trkpt lat="28.110528" lon="-17.278526">
<ele>788.418500</ele>
<time>2009-06-06T10:27:27.000Z</time>
</trkpt>
<trkpt lat="28.110509" lon="-17.278377">
<ele>790.821500</ele>
<time>2009-06-06T10:27:45.000Z</time>
</trkpt>
<trkpt lat="28.110516" lon="-17.278363">
<ele>792.263700</ele>
<time>2009-06-06T10:27:51.000Z</time>
</trkpt>
<trkpt lat="28.110505" lon="-17.278254">
<ele>795.147500</ele>
<time>2009-06-06T10:28:14.000Z</time>
</trkpt>
<trkpt lat="28.110481" lon="-17.278157">
<ele>798.512200</ele>
<time>2009-06-06T10:28:31.000Z</time>
</trkpt>
<trkpt lat="28.110477" lon="-17.278054">
<ele>801.396200</ele>
<time>2009-06-06T10:28:53.000Z</time>
</trkpt>
<trkpt lat="28.110451" lon="-17.277982">
<ele>803.318800</ele>
<time>2009-06-06T10:29:24.000Z</time>
</trkpt>
<trkpt lat="28.110472" lon="-17.277858">
<ele>806.202600</ele>
<time>2009-06-06T10:29:41.000Z</time>
</trkpt>
<trkpt lat="28.110468" lon="-17.277730">
<ele>808.606000</ele>
<time>2009-06-06T10:29:59.000Z</time>
</trkpt>
<trkpt lat="28.110547" lon="-17.277655">
<ele>810.528600</ele>
<time>2009-06-06T10:30:11.000Z</time>
</trkpt>
<trkpt lat="28.110551" lon="-17.277626">
<ele>811.009300</ele>
<time>2009-06-06T10:30:14.000Z</time>
</trkpt>
<trkpt lat="28.110590" lon="-17.277597">
<ele>811.490000</ele>
<time>2009-06-06T10:30:27.000Z</time>
</trkpt>
<trkpt lat="28.110609" lon="-17.277463">
<ele>814.854700</ele>
<time>2009-06-06T10:30:43.000Z</time>
</trkpt>
<trkpt lat="28.110613" lon="-17.277418">
<ele>814.854700</ele>
<time>2009-06-06T10:30:48.000Z</time>
</trkpt>
<trkpt lat="28.110621" lon="-17.277398">
<ele>814.854700</ele>
<time>2009-06-06T10:30:50.000Z</time>
</trkpt>
<trkpt lat="28.110616" lon="-17.277265">
<ele>815.816200</ele>
<time>2009-06-06T10:31:08.000Z</time>
</trkpt>
<trkpt lat="28.110627" lon="-17.277192">
<ele>815.816200</ele>
<time>2009-06-06T10:31:28.000Z</time>
</trkpt>
<trkpt lat="28.110621" lon="-17.277204">
<ele>816.296600</ele>
<time>2009-06-06T10:32:30.000Z</time>
</trkpt>
<trkpt lat="28.110642" lon="-17.277172">
<ele>816.296600</ele>
<time>2009-06-06T10:33:12.000Z</time>
</trkpt>
<trkpt lat="28.110660" lon="-17.277089">
<ele>816.296600</ele>
<time>2009-06-06T10:33:21.000Z</time>
</trkpt>
<trkpt lat="28.110670" lon="-17.277001">
<ele>816.777300</ele>
<time>2009-06-06T10:33:28.000Z</time>
</trkpt>
<trkpt lat="28.110706" lon="-17.276793">
<ele>816.777300</ele>
<time>2009-06-06T10:33:44.000Z</time>
</trkpt>
<trkpt lat="28.110720" lon="-17.276610">
<ele>816.777300</ele>
<time>2009-06-06T10:33:58.000Z</time>
</trkpt>
<trkpt lat="28.110713" lon="-17.276590">
<ele>816.296600</ele>
<time>2009-06-06T10:34:00.000Z</time>
</trkpt>
<trkpt lat="28.110712" lon="-17.276367">
<ele>815.816200</ele>
<time>2009-06-06T10:34:16.000Z</time>
</trkpt>
<trkpt lat="28.110716" lon="-17.276294">
<ele>815.335400</ele>
<time>2009-06-06T10:34:21.000Z</time>
</trkpt>
<trkpt lat="28.110791" lon="-17.276265">
<ele>817.738500</ele>
<time>2009-06-06T10:34:36.000Z</time>
</trkpt>
<trkpt lat="28.110795" lon="-17.276271">
<ele>818.219200</ele>
<time>2009-06-06T10:34:37.000Z</time>
</trkpt>
<trkpt lat="28.110837" lon="-17.276361">
<ele>818.700000</ele>
<time>2009-06-06T10:34:52.000Z</time>
</trkpt>
<trkpt lat="28.110858" lon="-17.276337">
<ele>818.700000</ele>
<time>2009-06-06T10:35:08.000Z</time>
</trkpt>
<trkpt lat="28.110858" lon="-17.276336">
<ele>817.258100</ele>
<time>2009-06-06T10:35:22.000Z</time>
</trkpt>
<trkpt lat="28.110799" lon="-17.276225">
<ele>817.738500</ele>
<time>2009-06-06T10:35:36.000Z</time>
</trkpt>
<trkpt lat="28.110791" lon="-17.276111">
<ele>816.777300</ele>
<time>2009-06-06T10:35:52.000Z</time>
</trkpt>
<trkpt lat="28.110794" lon="-17.276041">
<ele>815.335400</ele>
<time>2009-06-06T10:38:48.000Z</time>
</trkpt>
<trkpt lat="28.110825" lon="-17.275897">
<ele>814.374000</ele>
<time>2009-06-06T10:39:00.000Z</time>
</trkpt>
<trkpt lat="28.110888" lon="-17.275797">
<ele>814.854700</ele>
<time>2009-06-06T10:39:09.000Z</time>
</trkpt>
<trkpt lat="28.110947" lon="-17.275604">
<ele>814.374000</ele>
<time>2009-06-06T10:39:24.000Z</time>
</trkpt>
<trkpt lat="28.110949" lon="-17.275473">
<ele>815.335400</ele>
<time>2009-06-06T10:39:33.000Z</time>
</trkpt>
<trkpt lat="28.110939" lon="-17.275451">
<ele>814.854700</ele>
<time>2009-06-06T10:39:35.000Z</time>
</trkpt>
<trkpt lat="28.110924" lon="-17.275357">
<ele>815.335400</ele>
<time>2009-06-06T10:39:43.000Z</time>
</trkpt>
<trkpt lat="28.110917" lon="-17.275273">
<ele>817.738500</ele>
<time>2009-06-06T10:39:52.000Z</time>
</trkpt>
<trkpt lat="28.110922" lon="-17.275257">
<ele>815.816200</ele>
<time>2009-06-06T10:40:00.000Z</time>
</trkpt>
<trkpt lat="28.110935" lon="-17.275248">
<ele>816.296600</ele>
<time>2009-06-06T10:40:05.000Z</time>
</trkpt>
<trkpt lat="28.110966" lon="-17.275243">
<ele>816.777300</ele>
<time>2009-06-06T10:40:08.000Z</time>
</trkpt>
<trkpt lat="28.110988" lon="-17.275235">
<ele>815.335400</ele>
<time>2009-06-06T10:40:10.000Z</time>
</trkpt>
<trkpt lat="28.111042" lon="-17.275222">
<ele>817.738500</ele>
<time>2009-06-06T10:40:15.000Z</time>
</trkpt>
<trkpt lat="28.111137" lon="-17.275214">
<ele>819.661400</ele>
<time>2009-06-06T10:40:29.000Z</time>
</trkpt>
<trkpt lat="28.111242" lon="-17.275253">
<ele>821.103300</ele>
<time>2009-06-06T10:40:41.000Z</time>
</trkpt>
<trkpt lat="28.111411" lon="-17.275376">
<ele>823.025900</ele>
<time>2009-06-06T10:40:57.000Z</time>
</trkpt>
<trkpt lat="28.111512" lon="-17.275431">
<ele>823.506600</ele>
<time>2009-06-06T10:41:08.000Z</time>
</trkpt>
<trkpt lat="28.111631" lon="-17.275452">
<ele>823.987100</ele>
<time>2009-06-06T10:41:21.000Z</time>
</trkpt>
<trkpt lat="28.111695" lon="-17.275455">
<ele>823.987100</ele>
<time>2009-06-06T10:41:27.000Z</time>
</trkpt>
<trkpt lat="28.111858" lon="-17.275453">
<ele>823.506600</ele>
<time>2009-06-06T10:41:40.000Z</time>
</trkpt>
<trkpt lat="28.112031" lon="-17.275448">
<ele>823.987100</ele>
<time>2009-06-06T10:41:53.000Z</time>
</trkpt>
<trkpt lat="28.112070" lon="-17.275439">
<ele>822.064500</ele>
<time>2009-06-06T10:41:57.000Z</time>
</trkpt>
<trkpt lat="28.112227" lon="-17.275407">
<ele>821.103300</ele>
<time>2009-06-06T10:42:10.000Z</time>
</trkpt>
<trkpt lat="28.112335" lon="-17.275396">
<ele>821.583700</ele>
<time>2009-06-06T10:42:19.000Z</time>
</trkpt>
<trkpt lat="28.112404" lon="-17.275374">
<ele>820.622600</ele>
<time>2009-06-06T10:42:31.000Z</time>
</trkpt>
<trkpt lat="28.112570" lon="-17.275384">
<ele>819.180700</ele>
<time>2009-06-06T10:42:45.000Z</time>
</trkpt>
<trkpt lat="28.112629" lon="-17.275373">
<ele>819.180700</ele>
<time>2009-06-06T10:42:51.000Z</time>
</trkpt>
<trkpt lat="28.112772" lon="-17.275301">
<ele>816.777300</ele>
<time>2009-06-06T10:43:05.000Z</time>
</trkpt>
<trkpt lat="28.112785" lon="-17.275282">
<ele>815.335400</ele>
<time>2009-06-06T10:43:08.000Z</time>
</trkpt>
<trkpt lat="28.112868" lon="-17.275081">
<ele>815.335400</ele>
<time>2009-06-06T10:43:24.000Z</time>
</trkpt>
<trkpt lat="28.112839" lon="-17.275009">
<ele>816.296600</ele>
<time>2009-06-06T10:43:39.000Z</time>
</trkpt>
<trkpt lat="28.112760" lon="-17.274898">
<ele>813.412800</ele>
<time>2009-06-06T10:45:13.000Z</time>
</trkpt>
<trkpt lat="28.112752" lon="-17.274882">
<ele>813.412800</ele>
<time>2009-06-06T10:45:15.000Z</time>
</trkpt>
<trkpt lat="28.112726" lon="-17.274847">
<ele>811.970700</ele>
<time>2009-06-06T10:45:18.000Z</time>
</trkpt>
<trkpt lat="28.112717" lon="-17.274810">
<ele>812.932100</ele>
<time>2009-06-06T10:45:21.000Z</time>
</trkpt>
<trkpt lat="28.112647" lon="-17.274618">
<ele>812.932100</ele>
<time>2009-06-06T10:45:35.000Z</time>
</trkpt>
<trkpt lat="28.112583" lon="-17.274445">
<ele>811.009300</ele>
<time>2009-06-06T10:45:49.000Z</time>
</trkpt>
<trkpt lat="28.112580" lon="-17.274411">
<ele>812.451400</ele>
<time>2009-06-06T10:45:51.000Z</time>
</trkpt>
<trkpt lat="28.112576" lon="-17.274383">
<ele>812.451400</ele>
<time>2009-06-06T10:45:53.000Z</time>
</trkpt>
<trkpt lat="28.112553" lon="-17.274281">
<ele>813.412800</ele>
<time>2009-06-06T10:45:58.000Z</time>
</trkpt>
<trkpt lat="28.112551" lon="-17.274248">
<ele>813.893300</ele>
<time>2009-06-06T10:46:01.000Z</time>
</trkpt>
<trkpt lat="28.112543" lon="-17.274183">
<ele>809.567400</ele>
<time>2009-06-06T10:46:06.000Z</time>
</trkpt>
<trkpt lat="28.112540" lon="-17.274161">
<ele>808.606000</ele>
<time>2009-06-06T10:46:08.000Z</time>
</trkpt>
<trkpt lat="28.112535" lon="-17.273991">
<ele>811.970700</ele>
<time>2009-06-06T10:46:20.000Z</time>
</trkpt>
<trkpt lat="28.112508" lon="-17.273816">
<ele>811.490000</ele>
<time>2009-06-06T10:46:33.000Z</time>
</trkpt>
<trkpt lat="28.112435" lon="-17.273720">
<ele>811.490000</ele>
<time>2009-06-06T10:46:44.000Z</time>
</trkpt>
<trkpt lat="28.112396" lon="-17.273619">
<ele>809.567400</ele>
<time>2009-06-06T10:46:52.000Z</time>
</trkpt>
<trkpt lat="28.112352" lon="-17.273446">
<ele>809.567400</ele>
<time>2009-06-06T10:47:04.000Z</time>
</trkpt>
<trkpt lat="28.112357" lon="-17.273403">
<ele>806.202600</ele>
<time>2009-06-06T10:47:07.000Z</time>
</trkpt>
<trkpt lat="28.112360" lon="-17.273390">
<ele>806.202600</ele>
<time>2009-06-06T10:47:08.000Z</time>
</trkpt>
<trkpt lat="28.112383" lon="-17.273280">
<ele>807.644800</ele>
<time>2009-06-06T10:47:16.000Z</time>
</trkpt>
<trkpt lat="28.112413" lon="-17.273240">
<ele>807.644800</ele>
<time>2009-06-06T10:47:19.000Z</time>
</trkpt>
<trkpt lat="28.112414" lon="-17.273186">
<ele>805.241500</ele>
<time>2009-06-06T10:47:24.000Z</time>
</trkpt>
<trkpt lat="28.112397" lon="-17.273051">
<ele>806.202600</ele>
<time>2009-06-06T10:47:34.000Z</time>
</trkpt>
<trkpt lat="28.112407" lon="-17.272933">
<ele>803.799600</ele>
<time>2009-06-06T10:47:42.000Z</time>
</trkpt>
<trkpt lat="28.112420" lon="-17.272904">
<ele>803.318800</ele>
<time>2009-06-06T10:47:46.000Z</time>
</trkpt>
<trkpt lat="28.112396" lon="-17.272735">
<ele>803.318800</ele>
<time>2009-06-06T10:48:00.000Z</time>
</trkpt>
<trkpt lat="28.112400" lon="-17.272622">
<ele>799.473600</ele>
<time>2009-06-06T10:48:09.000Z</time>
</trkpt>
<trkpt lat="28.112404" lon="-17.272598">
<ele>798.992900</ele>
<time>2009-06-06T10:48:11.000Z</time>
</trkpt>
<trkpt lat="28.112425" lon="-17.272430">
<ele>798.992900</ele>
<time>2009-06-06T10:48:23.000Z</time>
</trkpt>
<trkpt lat="28.112403" lon="-17.272236">
<ele>798.031700</ele>
<time>2009-06-06T10:48:40.000Z</time>
</trkpt>
<trkpt lat="28.112498" lon="-17.272135">
<ele>795.147500</ele>
<time>2009-06-06T10:48:51.000Z</time>
</trkpt>
<trkpt lat="28.112487" lon="-17.272109">
<ele>796.589800</ele>
<time>2009-06-06T10:48:54.000Z</time>
</trkpt>
<trkpt lat="28.112495" lon="-17.272047">
<ele>795.628200</ele>
<time>2009-06-06T10:49:24.000Z</time>
</trkpt>
<trkpt lat="28.112573" lon="-17.271925">
<ele>793.224900</ele>
<time>2009-06-06T10:49:37.000Z</time>
</trkpt>
<trkpt lat="28.112613" lon="-17.271790">
<ele>793.705600</ele>
<time>2009-06-06T10:49:46.000Z</time>
</trkpt>
<trkpt lat="28.112621" lon="-17.271764">
<ele>794.186300</ele>
<time>2009-06-06T10:49:48.000Z</time>
</trkpt>
<trkpt lat="28.112639" lon="-17.271702">
<ele>793.705600</ele>
<time>2009-06-06T10:49:53.000Z</time>
</trkpt>
<trkpt lat="28.112627" lon="-17.271645">
<ele>792.744400</ele>
<time>2009-06-06T10:49:57.000Z</time>
</trkpt>
<trkpt lat="28.112639" lon="-17.271599">
<ele>792.744400</ele>
<time>2009-06-06T10:50:02.000Z</time>
</trkpt>
<trkpt lat="28.112689" lon="-17.271529">
<ele>793.705600</ele>
<time>2009-06-06T10:50:09.000Z</time>
</trkpt>
<trkpt lat="28.112701" lon="-17.271503">
<ele>793.224900</ele>
<time>2009-06-06T10:50:11.000Z</time>
</trkpt>
<trkpt lat="28.112724" lon="-17.271447">
<ele>794.186300</ele>
<time>2009-06-06T10:50:16.000Z</time>
</trkpt>
<trkpt lat="28.112738" lon="-17.271413">
<ele>793.224900</ele>
<time>2009-06-06T10:50:29.000Z</time>
</trkpt>
<trkpt lat="28.112738" lon="-17.271415">
<ele>792.744400</ele>
<time>2009-06-06T10:51:11.000Z</time>
</trkpt>
<trkpt lat="28.112739" lon="-17.271407">
<ele>793.705600</ele>
<time>2009-06-06T10:51:12.000Z</time>
</trkpt>
<trkpt lat="28.112769" lon="-17.271319">
<ele>794.186300</ele>
<time>2009-06-06T10:51:19.000Z</time>
</trkpt>
<trkpt lat="28.112787" lon="-17.271240">
<ele>793.705600</ele>
<time>2009-06-06T10:51:23.000Z</time>
</trkpt>
<trkpt lat="28.112770" lon="-17.271021">
<ele>791.302200</ele>
<time>2009-06-06T10:51:37.000Z</time>
</trkpt>
<trkpt lat="28.112782" lon="-17.270874">
<ele>788.418500</ele>
<time>2009-06-06T10:51:47.000Z</time>
</trkpt>
<trkpt lat="28.112780" lon="-17.270860">
<ele>787.937700</ele>
<time>2009-06-06T10:51:48.000Z</time>
</trkpt>
<trkpt lat="28.112819" lon="-17.270761">
<ele>788.418500</ele>
<time>2009-06-06T10:51:56.000Z</time>
</trkpt>
<trkpt lat="28.112939" lon="-17.270719">
<ele>786.976300</ele>
<time>2009-06-06T10:52:09.000Z</time>
</trkpt>
<trkpt lat="28.113110" lon="-17.270708">
<ele>785.534400</ele>
<time>2009-06-06T10:52:22.000Z</time>
</trkpt>
<trkpt lat="28.113181" lon="-17.270705">
<ele>785.534400</ele>
<time>2009-06-06T10:52:29.000Z</time>
</trkpt>
<trkpt lat="28.113242" lon="-17.270676">
<ele>785.534400</ele>
<time>2009-06-06T10:52:35.000Z</time>
</trkpt>
<trkpt lat="28.113337" lon="-17.270627">
<ele>784.573200</ele>
<time>2009-06-06T10:52:43.000Z</time>
</trkpt>
<trkpt lat="28.113474" lon="-17.270549">
<ele>783.131100</ele>
<time>2009-06-06T10:52:54.000Z</time>
</trkpt>
<trkpt lat="28.113518" lon="-17.270523">
<ele>782.169900</ele>
<time>2009-06-06T10:52:58.000Z</time>
</trkpt>
<trkpt lat="28.113547" lon="-17.270511">
<ele>782.169900</ele>
<time>2009-06-06T10:53:00.000Z</time>
</trkpt>
<trkpt lat="28.113628" lon="-17.270437">
<ele>781.689200</ele>
<time>2009-06-06T10:53:14.000Z</time>
</trkpt>
<trkpt lat="28.113626" lon="-17.270447">
<ele>781.208700</ele>
<time>2009-06-06T10:54:02.000Z</time>
</trkpt>
<trkpt lat="28.113729" lon="-17.270359">
<ele>780.247300</ele>
<time>2009-06-06T10:54:20.000Z</time>
</trkpt>
<trkpt lat="28.113760" lon="-17.270296">
<ele>779.766400</ele>
<time>2009-06-06T10:54:24.000Z</time>
</trkpt>
<trkpt lat="28.113789" lon="-17.270289">
<ele>779.285600</ele>
<time>2009-06-06T10:54:26.000Z</time>
</trkpt>
<trkpt lat="28.113835" lon="-17.270253">
<ele>778.805200</ele>
<time>2009-06-06T10:54:29.000Z</time>
</trkpt>
<trkpt lat="28.113980" lon="-17.270180">
<ele>779.766400</ele>
<time>2009-06-06T10:54:42.000Z</time>
</trkpt>
<trkpt lat="28.114014" lon="-17.270174">
<ele>778.805200</ele>
<time>2009-06-06T10:54:45.000Z</time>
</trkpt>
<trkpt lat="28.114111" lon="-17.270031">
<ele>781.208700</ele>
<time>2009-06-06T10:55:01.000Z</time>
</trkpt>
<trkpt lat="28.114122" lon="-17.269985">
<ele>781.689200</ele>
<time>2009-06-06T10:55:06.000Z</time>
</trkpt>
<trkpt lat="28.114134" lon="-17.269937">
<ele>781.689200</ele>
<time>2009-06-06T10:55:10.000Z</time>
</trkpt>
<trkpt lat="28.114193" lon="-17.269779">
<ele>784.573200</ele>
<time>2009-06-06T10:55:25.000Z</time>
</trkpt>
<trkpt lat="28.114222" lon="-17.269621">
<ele>786.495800</ele>
<time>2009-06-06T10:55:39.000Z</time>
</trkpt>
<trkpt lat="28.114205" lon="-17.269473">
<ele>788.418500</ele>
<time>2009-06-06T10:55:55.000Z</time>
</trkpt>
<trkpt lat="28.114142" lon="-17.269265">
<ele>790.821500</ele>
<time>2009-06-06T10:56:16.000Z</time>
</trkpt>
<trkpt lat="28.114094" lon="-17.269079">
<ele>791.783000</ele>
<time>2009-06-06T10:56:32.000Z</time>
</trkpt>
<trkpt lat="28.114047" lon="-17.268946">
<ele>794.666700</ele>
<time>2009-06-06T10:56:44.000Z</time>
</trkpt>
<trkpt lat="28.114037" lon="-17.268937">
<ele>794.666700</ele>
<time>2009-06-06T10:56:45.000Z</time>
</trkpt>
<trkpt lat="28.114017" lon="-17.268883">
<ele>795.628200</ele>
<time>2009-06-06T10:56:51.000Z</time>
</trkpt>
<trkpt lat="28.113930" lon="-17.268681">
<ele>797.070300</ele>
<time>2009-06-06T10:57:13.000Z</time>
</trkpt>
<trkpt lat="28.113886" lon="-17.268525">
<ele>798.992900</ele>
<time>2009-06-06T10:57:28.000Z</time>
</trkpt>
<trkpt lat="28.113848" lon="-17.268427">
<ele>800.435100</ele>
<time>2009-06-06T10:57:37.000Z</time>
</trkpt>
<trkpt lat="28.113790" lon="-17.268288">
<ele>800.915500</ele>
<time>2009-06-06T10:57:51.000Z</time>
</trkpt>
<trkpt lat="28.113755" lon="-17.268230">
<ele>800.915500</ele>
<time>2009-06-06T10:57:56.000Z</time>
</trkpt>
<trkpt lat="28.113733" lon="-17.268174">
<ele>802.357400</ele>
<time>2009-06-06T10:58:01.000Z</time>
</trkpt>
<trkpt lat="28.113656" lon="-17.268045">
<ele>805.241500</ele>
<time>2009-06-06T10:58:17.000Z</time>
</trkpt>
<trkpt lat="28.113636" lon="-17.267975">
<ele>806.202600</ele>
<time>2009-06-06T10:58:34.000Z</time>
</trkpt>
<trkpt lat="28.113622" lon="-17.267812">
<ele>807.164100</ele>
<time>2009-06-06T10:58:48.000Z</time>
</trkpt>
<trkpt lat="28.113602" lon="-17.267700">
<ele>808.606000</ele>
<time>2009-06-06T10:59:00.000Z</time>
</trkpt>
<trkpt lat="28.113585" lon="-17.267574">
<ele>809.567400</ele>
<time>2009-06-06T10:59:12.000Z</time>
</trkpt>
<trkpt lat="28.113542" lon="-17.267371">
<ele>811.490000</ele>
<time>2009-06-06T10:59:28.000Z</time>
</trkpt>
<trkpt lat="28.113514" lon="-17.267237">
<ele>812.451400</ele>
<time>2009-06-06T10:59:48.000Z</time>
</trkpt>
<trkpt lat="28.113493" lon="-17.267230">
<ele>814.854700</ele>
<time>2009-06-06T11:00:35.000Z</time>
</trkpt>
<trkpt lat="28.113471" lon="-17.267079">
<ele>813.893300</ele>
<time>2009-06-06T11:00:52.000Z</time>
</trkpt>
<trkpt lat="28.113451" lon="-17.267026">
<ele>813.893300</ele>
<time>2009-06-06T11:01:30.000Z</time>
</trkpt>
<trkpt lat="28.113418" lon="-17.266982">
<ele>816.296600</ele>
<time>2009-06-06T11:01:55.000Z</time>
</trkpt>
<trkpt lat="28.113435" lon="-17.266876">
<ele>816.777300</ele>
<time>2009-06-06T11:02:52.000Z</time>
</trkpt>
<trkpt lat="28.113436" lon="-17.266843">
<ele>817.258100</ele>
<time>2009-06-06T11:03:18.000Z</time>
</trkpt>
<trkpt lat="28.113397" lon="-17.266626">
<ele>820.622600</ele>
<time>2009-06-06T11:03:49.000Z</time>
</trkpt>
<trkpt lat="28.113371" lon="-17.266373">
<ele>823.987100</ele>
<time>2009-06-06T11:04:14.000Z</time>
</trkpt>
<trkpt lat="28.113333" lon="-17.266248">
<ele>825.909700</ele>
<time>2009-06-06T11:04:31.000Z</time>
</trkpt>
<trkpt lat="28.113359" lon="-17.266184">
<ele>827.351800</ele>
<time>2009-06-06T11:04:51.000Z</time>
</trkpt>
<trkpt lat="28.113371" lon="-17.266079">
<ele>828.793900</ele>
<time>2009-06-06T11:05:09.000Z</time>
</trkpt>
<trkpt lat="28.113384" lon="-17.266010">
<ele>829.274400</ele>
<time>2009-06-06T11:05:32.000Z</time>
</trkpt>
<trkpt lat="28.113390" lon="-17.266018">
<ele>829.755100</ele>
<time>2009-06-06T11:05:51.000Z</time>
</trkpt>
<trkpt lat="28.113393" lon="-17.265894">
<ele>831.677700</ele>
<time>2009-06-06T11:06:18.000Z</time>
</trkpt>
<trkpt lat="28.113357" lon="-17.265825">
<ele>832.639200</ele>
<time>2009-06-06T11:06:36.000Z</time>
</trkpt>
<trkpt lat="28.113296" lon="-17.265873">
<ele>834.561800</ele>
<time>2009-06-06T11:07:12.000Z</time>
</trkpt>
<trkpt lat="28.113329" lon="-17.265826">
<ele>835.042500</ele>
<time>2009-06-06T11:07:31.000Z</time>
</trkpt>
<trkpt lat="28.113382" lon="-17.265913">
<ele>832.158400</ele>
<time>2009-06-06T11:08:16.000Z</time>
</trkpt>
<trkpt lat="28.113362" lon="-17.266045">
<ele>830.235800</ele>
<time>2009-06-06T11:08:35.000Z</time>
</trkpt>
<trkpt lat="28.113313" lon="-17.266193">
<ele>828.313200</ele>
<time>2009-06-06T11:09:07.000Z</time>
</trkpt>
<trkpt lat="28.113294" lon="-17.266223">
<ele>828.793900</ele>
<time>2009-06-06T11:09:09.000Z</time>
</trkpt>
<trkpt lat="28.113187" lon="-17.266287">
<ele>829.755100</ele>
<time>2009-06-06T11:09:25.000Z</time>
</trkpt>
<trkpt lat="28.113116" lon="-17.266332">
<ele>831.677700</ele>
<time>2009-06-06T11:09:37.000Z</time>
</trkpt>
<trkpt lat="28.112999" lon="-17.266386">
<ele>834.081100</ele>
<time>2009-06-06T11:09:54.000Z</time>
</trkpt>
<trkpt lat="28.112872" lon="-17.266464">
<ele>836.964800</ele>
<time>2009-06-06T11:10:13.000Z</time>
</trkpt>
<trkpt lat="28.112807" lon="-17.266524">
<ele>839.368200</ele>
<time>2009-06-06T11:10:26.000Z</time>
</trkpt>
<trkpt lat="28.112770" lon="-17.266595">
<ele>839.368200</ele>
<time>2009-06-06T11:10:34.000Z</time>
</trkpt>
<trkpt lat="28.112709" lon="-17.266661">
<ele>840.329600</ele>
<time>2009-06-06T11:10:41.000Z</time>
</trkpt>
<trkpt lat="28.112630" lon="-17.266758">
<ele>841.771500</ele>
<time>2009-06-06T11:10:56.000Z</time>
</trkpt>
<trkpt lat="28.112556" lon="-17.266917">
<ele>843.213400</ele>
<time>2009-06-06T11:11:14.000Z</time>
</trkpt>
<trkpt lat="28.112495" lon="-17.266986">
<ele>843.213400</ele>
<time>2009-06-06T11:11:28.000Z</time>
</trkpt>
<trkpt lat="28.112380" lon="-17.267152">
<ele>845.616900</ele>
<time>2009-06-06T11:11:49.000Z</time>
</trkpt>
<trkpt lat="28.112382" lon="-17.267195">
<ele>846.097700</ele>
<time>2009-06-06T11:12:08.000Z</time>
</trkpt>
<trkpt lat="28.112356" lon="-17.267072">
<ele>848.500700</ele>
<time>2009-06-06T11:13:38.000Z</time>
</trkpt>
<trkpt lat="28.112417" lon="-17.266930">
<ele>848.500700</ele>
<time>2009-06-06T11:14:20.000Z</time>
</trkpt>
<trkpt lat="28.112445" lon="-17.266770">
<ele>849.462200</ele>
<time>2009-06-06T11:14:41.000Z</time>
</trkpt>
<trkpt lat="28.112458" lon="-17.266651">
<ele>850.423600</ele>
<time>2009-06-06T11:15:00.000Z</time>
</trkpt>
<trkpt lat="28.112480" lon="-17.266523">
<ele>849.942900</ele>
<time>2009-06-06T11:15:18.000Z</time>
</trkpt>
<trkpt lat="28.112527" lon="-17.266412">
<ele>850.423600</ele>
<time>2009-06-06T11:15:33.000Z</time>
</trkpt>
<trkpt lat="28.112477" lon="-17.266368">
<ele>851.865500</ele>
<time>2009-06-06T11:15:47.000Z</time>
</trkpt>
<trkpt lat="28.112459" lon="-17.266351">
<ele>854.268800</ele>
<time>2009-06-06T11:16:11.000Z</time>
</trkpt>
<trkpt lat="28.112446" lon="-17.266306">
<ele>856.671900</ele>
<time>2009-06-06T11:17:30.000Z</time>
</trkpt>
<trkpt lat="28.112455" lon="-17.266199">
<ele>856.191200</ele>
<time>2009-06-06T11:17:44.000Z</time>
</trkpt>
<trkpt lat="28.112453" lon="-17.266124">
<ele>855.710700</ele>
<time>2009-06-06T11:18:02.000Z</time>
</trkpt>
<trkpt lat="28.112451" lon="-17.266246">
<ele>856.191200</ele>
<time>2009-06-06T11:18:19.000Z</time>
</trkpt>
<trkpt lat="28.112437" lon="-17.266338">
<ele>853.788100</ele>
<time>2009-06-06T11:18:40.000Z</time>
</trkpt>
<trkpt lat="28.112471" lon="-17.266391">
<ele>850.904100</ele>
<time>2009-06-06T11:19:08.000Z</time>
</trkpt>
<trkpt lat="28.112482" lon="-17.266469">
<ele>849.942900</ele>
<time>2009-06-06T11:19:22.000Z</time>
</trkpt>
<trkpt lat="28.112469" lon="-17.266601">
<ele>848.500700</ele>
<time>2009-06-06T11:19:40.000Z</time>
</trkpt>
<trkpt lat="28.112365" lon="-17.266748">
<ele>848.981400</ele>
<time>2009-06-06T11:20:00.000Z</time>
</trkpt>
<trkpt lat="28.112333" lon="-17.266857">
<ele>848.981400</ele>
<time>2009-06-06T11:20:16.000Z</time>
</trkpt>
<trkpt lat="28.112321" lon="-17.266952">
<ele>848.020300</ele>
<time>2009-06-06T11:20:31.000Z</time>
</trkpt>
<trkpt lat="28.112270" lon="-17.267063">
<ele>847.058800</ele>
<time>2009-06-06T11:20:47.000Z</time>
</trkpt>
<trkpt lat="28.112334" lon="-17.267090">
<ele>844.655500</ele>
<time>2009-06-06T11:21:09.000Z</time>
</trkpt>
<trkpt lat="28.112373" lon="-17.267001">
<ele>843.213400</ele>
<time>2009-06-06T11:21:18.000Z</time>
</trkpt>
<trkpt lat="28.112475" lon="-17.266935">
<ele>841.771500</ele>
<time>2009-06-06T11:21:31.000Z</time>
</trkpt>
<trkpt lat="28.112526" lon="-17.266861">
<ele>841.771500</ele>
<time>2009-06-06T11:21:38.000Z</time>
</trkpt>
<trkpt lat="28.112544" lon="-17.266841">
<ele>841.771500</ele>
<time>2009-06-06T11:21:40.000Z</time>
</trkpt>
<trkpt lat="28.112552" lon="-17.266781">
<ele>842.252200</ele>
<time>2009-06-06T11:21:45.000Z</time>
</trkpt>
<trkpt lat="28.112604" lon="-17.266648">
<ele>840.810100</ele>
<time>2009-06-06T11:22:03.000Z</time>
</trkpt>
<trkpt lat="28.112704" lon="-17.266523">
<ele>838.407000</ele>
<time>2009-06-06T11:22:22.000Z</time>
</trkpt>
<trkpt lat="28.112812" lon="-17.266387">
<ele>836.003700</ele>
<time>2009-06-06T11:22:40.000Z</time>
</trkpt>
<trkpt lat="28.112798" lon="-17.266359">
<ele>835.042500</ele>
<time>2009-06-06T11:23:00.000Z</time>
</trkpt>
<trkpt lat="28.112974" lon="-17.266334">
<ele>833.119600</ele>
<time>2009-06-06T11:23:16.000Z</time>
</trkpt>
<trkpt lat="28.113047" lon="-17.266301">
<ele>832.158400</ele>
<time>2009-06-06T11:23:35.000Z</time>
</trkpt>
<trkpt lat="28.113172" lon="-17.266249">
<ele>830.716600</ele>
<time>2009-06-06T11:23:47.000Z</time>
</trkpt>
<trkpt lat="28.113349" lon="-17.266163">
<ele>828.313200</ele>
<time>2009-06-06T11:24:06.000Z</time>
</trkpt>
<trkpt lat="28.113385" lon="-17.266218">
<ele>826.871100</ele>
<time>2009-06-06T11:24:30.000Z</time>
</trkpt>
<trkpt lat="28.113324" lon="-17.266344">
<ele>825.909700</ele>
<time>2009-06-06T11:24:47.000Z</time>
</trkpt>
<trkpt lat="28.113321" lon="-17.266365">
<ele>825.429000</ele>
<time>2009-06-06T11:24:49.000Z</time>
</trkpt>
<trkpt lat="28.113334" lon="-17.266468">
<ele>823.987100</ele>
<time>2009-06-06T11:25:03.000Z</time>
</trkpt>
<trkpt lat="28.113364" lon="-17.266574">
<ele>822.064500</ele>
<time>2009-06-06T11:25:16.000Z</time>
</trkpt>
<trkpt lat="28.113394" lon="-17.266751">
<ele>818.700000</ele>
<time>2009-06-06T11:25:36.000Z</time>
</trkpt>
<trkpt lat="28.113411" lon="-17.266877">
<ele>817.258100</ele>
<time>2009-06-06T11:25:58.000Z</time>
</trkpt>
<trkpt lat="28.113422" lon="-17.267085">
<ele>814.854700</ele>
<time>2009-06-06T11:26:19.000Z</time>
</trkpt>
<trkpt lat="28.113437" lon="-17.267108">
<ele>814.374000</ele>
<time>2009-06-06T11:26:22.000Z</time>
</trkpt>
<trkpt lat="28.113469" lon="-17.267186">
<ele>812.932100</ele>
<time>2009-06-06T11:26:40.000Z</time>
</trkpt>
<trkpt lat="28.113458" lon="-17.267221">
<ele>812.451400</ele>
<time>2009-06-06T11:27:08.000Z</time>
</trkpt>
<trkpt lat="28.113482" lon="-17.267287">
<ele>811.009300</ele>
<time>2009-06-06T11:27:31.000Z</time>
</trkpt>
<trkpt lat="28.113494" lon="-17.267354">
<ele>811.009300</ele>
<time>2009-06-06T11:27:34.000Z</time>
</trkpt>
<trkpt lat="28.113506" lon="-17.267427">
<ele>810.528600</ele>
<time>2009-06-06T11:27:39.000Z</time>
</trkpt>
<trkpt lat="28.113542" lon="-17.267558">
<ele>809.567400</ele>
<time>2009-06-06T11:27:52.000Z</time>
</trkpt>
<trkpt lat="28.113573" lon="-17.267734">
<ele>808.125500</ele>
<time>2009-06-06T11:28:05.000Z</time>
</trkpt>
<trkpt lat="28.113597" lon="-17.267801">
<ele>807.164100</ele>
<time>2009-06-06T11:28:11.000Z</time>
</trkpt>
<trkpt lat="28.113596" lon="-17.267860">
<ele>806.683300</ele>
<time>2009-06-06T11:28:15.000Z</time>
</trkpt>
<trkpt lat="28.113597" lon="-17.267916">
<ele>806.202600</ele>
<time>2009-06-06T11:28:19.000Z</time>
</trkpt>
<trkpt lat="28.113614" lon="-17.268029">
<ele>805.722200</ele>
<time>2009-06-06T11:28:27.000Z</time>
</trkpt>
<trkpt lat="28.113661" lon="-17.268163">
<ele>804.280300</ele>
<time>2009-06-06T11:28:40.000Z</time>
</trkpt>
<trkpt lat="28.113724" lon="-17.268316">
<ele>801.396200</ele>
<time>2009-06-06T11:28:54.000Z</time>
</trkpt>
<trkpt lat="28.113748" lon="-17.268368">
<ele>800.915500</ele>
<time>2009-06-06T11:28:59.000Z</time>
</trkpt>
<trkpt lat="28.113813" lon="-17.268465">
<ele>799.954300</ele>
<time>2009-06-06T11:29:10.000Z</time>
</trkpt>
<trkpt lat="28.113874" lon="-17.268634">
<ele>798.031700</ele>
<time>2009-06-06T11:29:24.000Z</time>
</trkpt>
<trkpt lat="28.113948" lon="-17.268868">
<ele>796.109100</ele>
<time>2009-06-06T11:29:44.000Z</time>
</trkpt>
<trkpt lat="28.113995" lon="-17.268984">
<ele>794.186300</ele>
<time>2009-06-06T11:29:59.000Z</time>
</trkpt>
<trkpt lat="28.114025" lon="-17.269054">
<ele>794.186300</ele>
<time>2009-06-06T11:30:07.000Z</time>
</trkpt>
<trkpt lat="28.114050" lon="-17.269197">
<ele>792.744400</ele>
<time>2009-06-06T11:30:20.000Z</time>
</trkpt>
<trkpt lat="28.114071" lon="-17.269255">
<ele>791.783000</ele>
<time>2009-06-06T11:30:31.000Z</time>
</trkpt>
<trkpt lat="28.114133" lon="-17.269402">
<ele>789.379600</ele>
<time>2009-06-06T11:30:44.000Z</time>
</trkpt>
<trkpt lat="28.114151" lon="-17.269458">
<ele>788.899200</ele>
<time>2009-06-06T11:30:49.000Z</time>
</trkpt>
<trkpt lat="28.114154" lon="-17.269483">
<ele>788.418500</ele>
<time>2009-06-06T11:30:51.000Z</time>
</trkpt>
<trkpt lat="28.114160" lon="-17.269594">
<ele>787.937700</ele>
<time>2009-06-06T11:30:58.000Z</time>
</trkpt>
<trkpt lat="28.114174" lon="-17.269658">
<ele>787.457000</ele>
<time>2009-06-06T11:31:03.000Z</time>
</trkpt>
<trkpt lat="28.114154" lon="-17.269817">
<ele>785.054000</ele>
<time>2009-06-06T11:31:18.000Z</time>
</trkpt>
<trkpt lat="28.114102" lon="-17.270018">
<ele>782.169900</ele>
<time>2009-06-06T11:31:36.000Z</time>
</trkpt>
<trkpt lat="28.114102" lon="-17.270030">
<ele>782.169900</ele>
<time>2009-06-06T11:31:37.000Z</time>
</trkpt>
<trkpt lat="28.114094" lon="-17.270062">
<ele>781.689200</ele>
<time>2009-06-06T11:31:40.000Z</time>
</trkpt>
<trkpt lat="28.114083" lon="-17.270237">
<ele>780.247300</ele>
<time>2009-06-06T11:31:55.000Z</time>
</trkpt>
<trkpt lat="28.114112" lon="-17.270313">
<ele>779.766400</ele>
<time>2009-06-06T11:32:08.000Z</time>
</trkpt>
<trkpt lat="28.114097" lon="-17.270358">
<ele>779.285600</ele>
<time>2009-06-06T11:32:46.000Z</time>
</trkpt>
<trkpt lat="28.114091" lon="-17.270435">
<ele>779.766400</ele>
<time>2009-06-06T11:32:51.000Z</time>
</trkpt>
<trkpt lat="28.114081" lon="-17.270562">
<ele>780.247300</ele>
<time>2009-06-06T11:33:01.000Z</time>
</trkpt>
<trkpt lat="28.114109" lon="-17.270770">
<ele>780.247300</ele>
<time>2009-06-06T11:33:14.000Z</time>
</trkpt>
<trkpt lat="28.114104" lon="-17.270924">
<ele>781.689200</ele>
<time>2009-06-06T11:33:25.000Z</time>
</trkpt>
<trkpt lat="28.114103" lon="-17.270935">
<ele>781.689200</ele>
<time>2009-06-06T11:33:26.000Z</time>
</trkpt>
<trkpt lat="28.114053" lon="-17.271140">
<ele>782.650600</ele>
<time>2009-06-06T11:33:40.000Z</time>
</trkpt>
<trkpt lat="28.114031" lon="-17.271301">
<ele>782.650600</ele>
<time>2009-06-06T11:33:54.000Z</time>
</trkpt>
<trkpt lat="28.114026" lon="-17.271459">
<ele>782.650600</ele>
<time>2009-06-06T11:34:07.000Z</time>
</trkpt>
<trkpt lat="28.114032" lon="-17.271500">
<ele>783.611800</ele>
<time>2009-06-06T11:34:10.000Z</time>
</trkpt>
<trkpt lat="28.114019" lon="-17.271687">
<ele>784.573200</ele>
<time>2009-06-06T11:34:23.000Z</time>
</trkpt>
<trkpt lat="28.114048" lon="-17.271885">
<ele>784.573200</ele>
<time>2009-06-06T11:34:36.000Z</time>
</trkpt>
<trkpt lat="28.114116" lon="-17.272073">
<ele>784.092500</ele>
<time>2009-06-06T11:34:50.000Z</time>
</trkpt>
<trkpt lat="28.114133" lon="-17.272102">
<ele>784.092500</ele>
<time>2009-06-06T11:34:52.000Z</time>
</trkpt>
<trkpt lat="28.114189" lon="-17.272168">
<ele>784.092500</ele>
<time>2009-06-06T11:34:58.000Z</time>
</trkpt>
<trkpt lat="28.114315" lon="-17.272278">
<ele>784.092500</ele>
<time>2009-06-06T11:35:12.000Z</time>
</trkpt>
<trkpt lat="28.114341" lon="-17.272281">
<ele>784.573200</ele>
<time>2009-06-06T11:35:39.000Z</time>
</trkpt>
<trkpt lat="28.114409" lon="-17.272231">
<ele>784.573200</ele>
<time>2009-06-06T11:36:37.000Z</time>
</trkpt>
<trkpt lat="28.114443" lon="-17.272193">
<ele>785.534400</ele>
<time>2009-06-06T11:36:50.000Z</time>
</trkpt>
<trkpt lat="28.114428" lon="-17.272148">
<ele>788.418500</ele>
<time>2009-06-06T11:39:08.000Z</time>
</trkpt>
<trkpt lat="28.114422" lon="-17.272115">
<ele>791.783000</ele>
<time>2009-06-06T11:39:26.000Z</time>
</trkpt>
<trkpt lat="28.114416" lon="-17.272065">
<ele>794.666700</ele>
<time>2009-06-06T11:39:49.000Z</time>
</trkpt>
<trkpt lat="28.114407" lon="-17.271972">
<ele>796.589800</ele>
<time>2009-06-06T11:40:13.000Z</time>
</trkpt>
<trkpt lat="28.114465" lon="-17.271868">
<ele>798.992900</ele>
<time>2009-06-06T11:40:33.000Z</time>
</trkpt>
<trkpt lat="28.114472" lon="-17.271755">
<ele>801.877000</ele>
<time>2009-06-06T11:40:50.000Z</time>
</trkpt>
<trkpt lat="28.114462" lon="-17.271627">
<ele>803.799600</ele>
<time>2009-06-06T11:41:07.000Z</time>
</trkpt>
<trkpt lat="28.114472" lon="-17.271506">
<ele>804.280300</ele>
<time>2009-06-06T11:41:25.000Z</time>
</trkpt>
<trkpt lat="28.114486" lon="-17.271452">
<ele>805.241500</ele>
<time>2009-06-06T11:41:49.000Z</time>
</trkpt>
<trkpt lat="28.114554" lon="-17.271327">
<ele>805.722200</ele>
<time>2009-06-06T11:42:03.000Z</time>
</trkpt>
<trkpt lat="28.114608" lon="-17.271212">
<ele>807.164100</ele>
<time>2009-06-06T11:42:18.000Z</time>
</trkpt>
<trkpt lat="28.114635" lon="-17.271119">
<ele>806.202600</ele>
<time>2009-06-06T11:42:35.000Z</time>
</trkpt>
<trkpt lat="28.114651" lon="-17.271052">
<ele>806.683300</ele>
<time>2009-06-06T11:42:41.000Z</time>
</trkpt>
<trkpt lat="28.114724" lon="-17.270942">
<ele>807.644800</ele>
<time>2009-06-06T11:42:56.000Z</time>
</trkpt>
<trkpt lat="28.114843" lon="-17.270810">
<ele>808.606000</ele>
<time>2009-06-06T11:43:11.000Z</time>
</trkpt>
<trkpt lat="28.114913" lon="-17.270694">
<ele>809.086700</ele>
<time>2009-06-06T11:43:31.000Z</time>
</trkpt>
<trkpt lat="28.115005" lon="-17.270648">
<ele>810.528600</ele>
<time>2009-06-06T11:45:13.000Z</time>
</trkpt>
<trkpt lat="28.115035" lon="-17.270594">
<ele>811.490000</ele>
<time>2009-06-06T11:45:32.000Z</time>
</trkpt>
<trkpt lat="28.115015" lon="-17.270599">
<ele>811.009300</ele>
<time>2009-06-06T11:46:21.000Z</time>
</trkpt>
<trkpt lat="28.115016" lon="-17.270604">
<ele>813.893300</ele>
<time>2009-06-06T11:46:41.000Z</time>
</trkpt>
<trkpt lat="28.115020" lon="-17.270606">
<ele>811.009300</ele>
<time>2009-06-06T11:46:48.000Z</time>
</trkpt>
<trkpt lat="28.115083" lon="-17.270521">
<ele>813.893300</ele>
<time>2009-06-06T11:47:16.000Z</time>
</trkpt>
<trkpt lat="28.115196" lon="-17.270463">
<ele>816.777300</ele>
<time>2009-06-06T11:47:35.000Z</time>
</trkpt>
<trkpt lat="28.115219" lon="-17.270353">
<ele>819.661400</ele>
<time>2009-06-06T11:47:52.000Z</time>
</trkpt>
<trkpt lat="28.115223" lon="-17.270270">
<ele>821.103300</ele>
<time>2009-06-06T11:48:01.000Z</time>
</trkpt>
<trkpt lat="28.115179" lon="-17.270130">
<ele>822.545200</ele>
<time>2009-06-06T11:48:16.000Z</time>
</trkpt>
<trkpt lat="28.115166" lon="-17.270102">
<ele>823.025900</ele>
<time>2009-06-06T11:48:19.000Z</time>
</trkpt>
<trkpt lat="28.115065" lon="-17.270001">
<ele>824.467800</ele>
<time>2009-06-06T11:48:34.000Z</time>
</trkpt>
<trkpt lat="28.115003" lon="-17.269872">
<ele>824.467800</ele>
<time>2009-06-06T11:48:48.000Z</time>
</trkpt>
<trkpt lat="28.114999" lon="-17.269850">
<ele>824.948500</ele>
<time>2009-06-06T11:48:50.000Z</time>
</trkpt>
<trkpt lat="28.114999" lon="-17.269661">
<ele>827.832300</ele>
<time>2009-06-06T11:49:12.000Z</time>
</trkpt>
<trkpt lat="28.115029" lon="-17.269558">
<ele>829.274400</ele>
<time>2009-06-06T11:49:27.000Z</time>
</trkpt>
<trkpt lat="28.115051" lon="-17.269505">
<ele>830.235800</ele>
<time>2009-06-06T11:49:40.000Z</time>
</trkpt>
<trkpt lat="28.115098" lon="-17.269410">
<ele>831.197300</ele>
<time>2009-06-06T11:49:56.000Z</time>
</trkpt>
<trkpt lat="28.115067" lon="-17.269389">
<ele>832.639200</ele>
<time>2009-06-06T11:50:14.000Z</time>
</trkpt>
<trkpt lat="28.115022" lon="-17.269324">
<ele>833.600300</ele>
<time>2009-06-06T11:51:19.000Z</time>
</trkpt>
<trkpt lat="28.114987" lon="-17.269248">
<ele>833.119600</ele>
<time>2009-06-06T11:51:25.000Z</time>
</trkpt>
<trkpt lat="28.114902" lon="-17.269091">
<ele>834.561800</ele>
<time>2009-06-06T11:51:41.000Z</time>
</trkpt>
<trkpt lat="28.114879" lon="-17.268900">
<ele>836.003700</ele>
<time>2009-06-06T11:51:58.000Z</time>
</trkpt>
<trkpt lat="28.114853" lon="-17.268735">
<ele>838.407000</ele>
<time>2009-06-06T11:52:15.000Z</time>
</trkpt>
<trkpt lat="28.114838" lon="-17.268608">
<ele>840.810100</ele>
<time>2009-06-06T11:52:27.000Z</time>
</trkpt>
<trkpt lat="28.114808" lon="-17.268463">
<ele>840.810100</ele>
<time>2009-06-06T11:52:41.000Z</time>
</trkpt>
<trkpt lat="28.114804" lon="-17.268431">
<ele>839.368200</ele>
<time>2009-06-06T11:52:44.000Z</time>
</trkpt>
<trkpt lat="28.114803" lon="-17.268412">
<ele>839.848900</ele>
<time>2009-06-06T11:52:46.000Z</time>
</trkpt>
<trkpt lat="28.114822" lon="-17.268246">
<ele>841.290800</ele>
<time>2009-06-06T11:53:00.000Z</time>
</trkpt>
<trkpt lat="28.114794" lon="-17.268106">
<ele>841.771500</ele>
<time>2009-06-06T11:53:12.000Z</time>
</trkpt>
<trkpt lat="28.114791" lon="-17.268053">
<ele>842.252200</ele>
<time>2009-06-06T11:53:16.000Z</time>
</trkpt>
<trkpt lat="28.114753" lon="-17.267915">
<ele>844.175000</ele>
<time>2009-06-06T11:53:32.000Z</time>
</trkpt>
<trkpt lat="28.114714" lon="-17.267816">
<ele>847.058800</ele>
<time>2009-06-06T11:53:46.000Z</time>
</trkpt>
<trkpt lat="28.114705" lon="-17.267708">
<ele>847.539600</ele>
<time>2009-06-06T11:54:03.000Z</time>
</trkpt>
<trkpt lat="28.114706" lon="-17.267590">
<ele>849.942900</ele>
<time>2009-06-06T11:54:21.000Z</time>
</trkpt>
<trkpt lat="28.114682" lon="-17.267484">
<ele>852.345900</ele>
<time>2009-06-06T11:54:40.000Z</time>
</trkpt>
<trkpt lat="28.114656" lon="-17.267382">
<ele>853.788100</ele>
<time>2009-06-06T11:54:57.000Z</time>
</trkpt>
<trkpt lat="28.114635" lon="-17.267311">
<ele>857.152600</ele>
<time>2009-06-06T11:55:12.000Z</time>
</trkpt>
<trkpt lat="28.114634" lon="-17.267299">
<ele>858.114000</ele>
<time>2009-06-06T11:55:48.000Z</time>
</trkpt>
<trkpt lat="28.114596" lon="-17.267119">
<ele>860.998000</ele>
<time>2009-06-06T11:57:17.000Z</time>
</trkpt>
<trkpt lat="28.114619" lon="-17.267001">
<ele>863.401400</ele>
<time>2009-06-06T11:57:32.000Z</time>
</trkpt>
<trkpt lat="28.114605" lon="-17.266909">
<ele>865.804700</ele>
<time>2009-06-06T11:57:48.000Z</time>
</trkpt>
<trkpt lat="28.114630" lon="-17.266826">
<ele>865.324000</ele>
<time>2009-06-06T11:58:02.000Z</time>
</trkpt>
<trkpt lat="28.114649" lon="-17.266720">
<ele>865.804700</ele>
<time>2009-06-06T11:58:15.000Z</time>
</trkpt>
<trkpt lat="28.114699" lon="-17.266654">
<ele>867.246600</ele>
<time>2009-06-06T11:58:32.000Z</time>
</trkpt>
<trkpt lat="28.114723" lon="-17.266517">
<ele>869.169200</ele>
<time>2009-06-06T11:58:49.000Z</time>
</trkpt>
<trkpt lat="28.114782" lon="-17.266454">
<ele>872.053000</ele>
<time>2009-06-06T11:59:05.000Z</time>
</trkpt>
<trkpt lat="28.114814" lon="-17.266383">
<ele>873.014400</ele>
<time>2009-06-06T11:59:16.000Z</time>
</trkpt>
<trkpt lat="28.114843" lon="-17.266269">
<ele>874.937000</ele>
<time>2009-06-06T11:59:29.000Z</time>
</trkpt>
<trkpt lat="28.114831" lon="-17.266127">
<ele>875.417500</ele>
<time>2009-06-06T11:59:44.000Z</time>
</trkpt>
<trkpt lat="28.114827" lon="-17.266065">
<ele>878.782500</ele>
<time>2009-06-06T12:00:04.000Z</time>
</trkpt>
<trkpt lat="28.114809" lon="-17.266041">
<ele>880.224400</ele>
<time>2009-06-06T12:00:08.000Z</time>
</trkpt>
<trkpt lat="28.114819" lon="-17.266009">
<ele>881.185800</ele>
<time>2009-06-06T12:00:37.000Z</time>
</trkpt>
<trkpt lat="28.114821" lon="-17.265981">
<ele>882.147000</ele>
<time>2009-06-06T12:00:58.000Z</time>
</trkpt>
<trkpt lat="28.114826" lon="-17.265916">
<ele>882.627700</ele>
<time>2009-06-06T12:01:19.000Z</time>
</trkpt>
<trkpt lat="28.114835" lon="-17.265864">
<ele>882.627700</ele>
<time>2009-06-06T12:01:25.000Z</time>
</trkpt>
<trkpt lat="28.114864" lon="-17.265744">
<ele>884.550300</ele>
<time>2009-06-06T12:01:43.000Z</time>
</trkpt>
<trkpt lat="28.114876" lon="-17.265658">
<ele>885.992200</ele>
<time>2009-06-06T12:01:58.000Z</time>
</trkpt>
<trkpt lat="28.114872" lon="-17.265570">
<ele>886.472900</ele>
<time>2009-06-06T12:02:11.000Z</time>
</trkpt>
<trkpt lat="28.114872" lon="-17.265418">
<ele>888.395500</ele>
<time>2009-06-06T12:02:29.000Z</time>
</trkpt>
<trkpt lat="28.114812" lon="-17.265247">
<ele>888.876200</ele>
<time>2009-06-06T12:02:47.000Z</time>
</trkpt>
<trkpt lat="28.114740" lon="-17.265147">
<ele>889.837400</ele>
<time>2009-06-06T12:03:03.000Z</time>
</trkpt>
<trkpt lat="28.114712" lon="-17.265140">
<ele>889.356700</ele>
<time>2009-06-06T12:03:08.000Z</time>
</trkpt>
<trkpt lat="28.114706" lon="-17.265130">
<ele>889.837400</ele>
<time>2009-06-06T12:03:11.000Z</time>
</trkpt>
<trkpt lat="28.114621" lon="-17.265049">
<ele>891.279300</ele>
<time>2009-06-06T12:03:28.000Z</time>
</trkpt>
<trkpt lat="28.114523" lon="-17.264966">
<ele>895.124800</ele>
<time>2009-06-06T12:03:46.000Z</time>
</trkpt>
<trkpt lat="28.114460" lon="-17.264930">
<ele>897.047400</ele>
<time>2009-06-06T12:03:59.000Z</time>
</trkpt>
<trkpt lat="28.114377" lon="-17.264840">
<ele>898.489300</ele>
<time>2009-06-06T12:04:17.000Z</time>
</trkpt>
<trkpt lat="28.114302" lon="-17.264799">
<ele>898.489300</ele>
<time>2009-06-06T12:04:33.000Z</time>
</trkpt>
<trkpt lat="28.114333" lon="-17.264765">
<ele>898.489300</ele>
<time>2009-06-06T12:04:50.000Z</time>
</trkpt>
<trkpt lat="28.114312" lon="-17.264799">
<ele>898.489300</ele>
<time>2009-06-06T12:05:10.000Z</time>
</trkpt>
<trkpt lat="28.114322" lon="-17.264689">
<ele>900.892600</ele>
<time>2009-06-06T12:06:06.000Z</time>
</trkpt>
<trkpt lat="28.114341" lon="-17.264544">
<ele>901.854000</ele>
<time>2009-06-06T12:06:22.000Z</time>
</trkpt>
<trkpt lat="28.114341" lon="-17.264431">
<ele>903.776600</ele>
<time>2009-06-06T12:06:34.000Z</time>
</trkpt>
<trkpt lat="28.114329" lon="-17.264264">
<ele>904.737800</ele>
<time>2009-06-06T12:06:48.000Z</time>
</trkpt>
<trkpt lat="28.114313" lon="-17.264144">
<ele>906.179700</ele>
<time>2009-06-06T12:07:01.000Z</time>
</trkpt>
<trkpt lat="28.114268" lon="-17.264005">
<ele>907.621800</ele>
<time>2009-06-06T12:07:13.000Z</time>
</trkpt>
<trkpt lat="28.114220" lon="-17.263827">
<ele>908.102800</ele>
<time>2009-06-06T12:07:30.000Z</time>
</trkpt>
<trkpt lat="28.114221" lon="-17.263678">
<ele>908.102800</ele>
<time>2009-06-06T12:07:40.000Z</time>
</trkpt>
<trkpt lat="28.114214" lon="-17.263628">
<ele>909.064000</ele>
<time>2009-06-06T12:07:44.000Z</time>
</trkpt>
<trkpt lat="28.114240" lon="-17.263586">
<ele>909.544700</ele>
<time>2009-06-06T12:07:48.000Z</time>
</trkpt>
<trkpt lat="28.114280" lon="-17.263499">
<ele>909.544700</ele>
<time>2009-06-06T12:07:56.000Z</time>
</trkpt>
<trkpt lat="28.114281" lon="-17.263295">
<ele>910.505900</ele>
<time>2009-06-06T12:08:12.000Z</time>
</trkpt>
<trkpt lat="28.114280" lon="-17.263156">
<ele>911.948000</ele>
<time>2009-06-06T12:08:24.000Z</time>
</trkpt>
<trkpt lat="28.114264" lon="-17.262960">
<ele>911.948000</ele>
<time>2009-06-06T12:08:38.000Z</time>
</trkpt>
<trkpt lat="28.114247" lon="-17.262773">
<ele>911.948000</ele>
<time>2009-06-06T12:08:51.000Z</time>
</trkpt>
<trkpt lat="28.114268" lon="-17.262642">
<ele>911.467300</ele>
<time>2009-06-06T12:09:02.000Z</time>
</trkpt>
<trkpt lat="28.114247" lon="-17.262483">
<ele>912.909200</ele>
<time>2009-06-06T12:09:12.000Z</time>
</trkpt>
<trkpt lat="28.114232" lon="-17.262354">
<ele>912.428500</ele>
<time>2009-06-06T12:09:22.000Z</time>
</trkpt>
<trkpt lat="28.114249" lon="-17.262156">
<ele>913.870400</ele>
<time>2009-06-06T12:09:37.000Z</time>
</trkpt>
<trkpt lat="28.114250" lon="-17.262145">
<ele>914.351100</ele>
<time>2009-06-06T12:09:38.000Z</time>
</trkpt>
<trkpt lat="28.114253" lon="-17.262091">
<ele>913.389900</ele>
<time>2009-06-06T12:09:41.000Z</time>
</trkpt>
<trkpt lat="28.114268" lon="-17.262032">
<ele>914.831800</ele>
<time>2009-06-06T12:09:46.000Z</time>
</trkpt>
<trkpt lat="28.114286" lon="-17.261973">
<ele>913.870400</ele>
<time>2009-06-06T12:09:51.000Z</time>
</trkpt>
<trkpt lat="28.114335" lon="-17.261792">
<ele>914.351100</ele>
<time>2009-06-06T12:10:06.000Z</time>
</trkpt>
<trkpt lat="28.114347" lon="-17.261630">
<ele>915.312500</ele>
<time>2009-06-06T12:10:18.000Z</time>
</trkpt>
<trkpt lat="28.114352" lon="-17.261615">
<ele>915.312500</ele>
<time>2009-06-06T12:10:19.000Z</time>
</trkpt>
<trkpt lat="28.114367" lon="-17.261441">
<ele>915.793200</ele>
<time>2009-06-06T12:10:34.000Z</time>
</trkpt>
<trkpt lat="28.114377" lon="-17.261428">
<ele>915.793200</ele>
<time>2009-06-06T12:10:35.000Z</time>
</trkpt>
<trkpt lat="28.114381" lon="-17.261390">
<ele>915.312500</ele>
<time>2009-06-06T12:10:38.000Z</time>
</trkpt>
<trkpt lat="28.114395" lon="-17.261299">
<ele>916.754400</ele>
<time>2009-06-06T12:10:45.000Z</time>
</trkpt>
<trkpt lat="28.114428" lon="-17.261207">
<ele>917.715600</ele>
<time>2009-06-06T12:10:53.000Z</time>
</trkpt>
<trkpt lat="28.114425" lon="-17.261181">
<ele>917.715600</ele>
<time>2009-06-06T12:10:55.000Z</time>
</trkpt>
<trkpt lat="28.114505" lon="-17.261045">
<ele>919.638400</ele>
<time>2009-06-06T12:11:09.000Z</time>
</trkpt>
<trkpt lat="28.114576" lon="-17.260911">
<ele>921.560800</ele>
<time>2009-06-06T12:11:22.000Z</time>
</trkpt>
<trkpt lat="28.114605" lon="-17.260813">
<ele>922.041500</ele>
<time>2009-06-06T12:11:37.000Z</time>
</trkpt>
<trkpt lat="28.114752" lon="-17.260850">
<ele>923.964100</ele>
<time>2009-06-06T12:13:14.000Z</time>
</trkpt>
<trkpt lat="28.114858" lon="-17.260742">
<ele>925.406300</ele>
<time>2009-06-06T12:13:30.000Z</time>
</trkpt>
<trkpt lat="28.114855" lon="-17.260593">
<ele>926.848400</ele>
<time>2009-06-06T12:13:42.000Z</time>
</trkpt>
<trkpt lat="28.114788" lon="-17.260450">
<ele>927.329100</ele>
<time>2009-06-06T12:13:56.000Z</time>
</trkpt>
<trkpt lat="28.114794" lon="-17.260360">
<ele>926.367700</ele>
<time>2009-06-06T12:14:12.000Z</time>
</trkpt>
<trkpt lat="28.114706" lon="-17.260076">
<ele>924.925800</ele>
<time>2009-06-06T12:14:38.000Z</time>
</trkpt>
<trkpt lat="28.114660" lon="-17.259719">
<ele>925.887000</ele>
<time>2009-06-06T12:15:04.000Z</time>
</trkpt>
<trkpt lat="28.114590" lon="-17.259484">
<ele>927.329100</ele>
<time>2009-06-06T12:15:28.000Z</time>
</trkpt>
<trkpt lat="28.114599" lon="-17.259270">
<ele>929.732200</ele>
<time>2009-06-06T12:15:48.000Z</time>
</trkpt>
<trkpt lat="28.114518" lon="-17.259109">
<ele>930.212900</ele>
<time>2009-06-06T12:16:06.000Z</time>
</trkpt>
<trkpt lat="28.114536" lon="-17.259040">
<ele>931.174300</ele>
<time>2009-06-06T12:16:24.000Z</time>
</trkpt>
<trkpt lat="28.114540" lon="-17.259041">
<ele>931.174300</ele>
<time>2009-06-06T12:16:57.000Z</time>
</trkpt>
<trkpt lat="28.114459" lon="-17.259039">
<ele>931.174300</ele>
<time>2009-06-06T12:17:17.000Z</time>
</trkpt>
<trkpt lat="28.114443" lon="-17.259084">
<ele>931.174300</ele>
<time>2009-06-06T12:17:41.000Z</time>
</trkpt>
<trkpt lat="28.114449" lon="-17.259107">
<ele>929.732200</ele>
<time>2009-06-06T12:18:42.000Z</time>
</trkpt>
<trkpt lat="28.114444" lon="-17.259126">
<ele>926.367700</ele>
<time>2009-06-06T12:22:15.000Z</time>
</trkpt>
<trkpt lat="28.114444" lon="-17.259126">
<ele>930.693600</ele>
<time>2009-06-06T12:22:16.000Z</time>
</trkpt>
<trkpt lat="28.114538" lon="-17.259053">
<ele>929.732200</ele>
<time>2009-06-06T12:31:07.000Z</time>
</trkpt>
<trkpt lat="28.114619" lon="-17.259030">
<ele>930.693600</ele>
<time>2009-06-06T12:31:13.000Z</time>
</trkpt>
<trkpt lat="28.114690" lon="-17.259049">
<ele>931.174300</ele>
<time>2009-06-06T12:31:18.000Z</time>
</trkpt>
<trkpt lat="28.114734" lon="-17.259079">
<ele>931.654800</ele>
<time>2009-06-06T12:31:23.000Z</time>
</trkpt>
<trkpt lat="28.114852" lon="-17.259256">
<ele>932.616200</ele>
<time>2009-06-06T12:31:39.000Z</time>
</trkpt>
<trkpt lat="28.114944" lon="-17.259357">
<ele>933.096700</ele>
<time>2009-06-06T12:31:52.000Z</time>
</trkpt>
<trkpt lat="28.115061" lon="-17.259443">
<ele>935.019500</ele>
<time>2009-06-06T12:32:07.000Z</time>
</trkpt>
<trkpt lat="28.115196" lon="-17.259471">
<ele>935.500000</ele>
<time>2009-06-06T12:32:19.000Z</time>
</trkpt>
<trkpt lat="28.115262" lon="-17.259554">
<ele>935.980700</ele>
<time>2009-06-06T12:32:29.000Z</time>
</trkpt>
<trkpt lat="28.115229" lon="-17.259686">
<ele>937.903300</ele>
<time>2009-06-06T12:32:43.000Z</time>
</trkpt>
<trkpt lat="28.115219" lon="-17.259734">
<ele>938.864700</ele>
<time>2009-06-06T12:32:47.000Z</time>
</trkpt>
<trkpt lat="28.115258" lon="-17.259990">
<ele>939.825900</ele>
<time>2009-06-06T12:33:06.000Z</time>
</trkpt>
<trkpt lat="28.115289" lon="-17.260056">
<ele>940.306900</ele>
<time>2009-06-06T12:33:14.000Z</time>
</trkpt>
<trkpt lat="28.115460" lon="-17.260153">
<ele>941.748800</ele>
<time>2009-06-06T12:33:32.000Z</time>
</trkpt>
<trkpt lat="28.115647" lon="-17.260194">
<ele>943.190700</ele>
<time>2009-06-06T12:33:49.000Z</time>
</trkpt>
<trkpt lat="28.115787" lon="-17.260226">
<ele>944.632600</ele>
<time>2009-06-06T12:34:05.000Z</time>
</trkpt>
<trkpt lat="28.115901" lon="-17.260321">
<ele>946.555400</ele>
<time>2009-06-06T12:34:31.000Z</time>
</trkpt>
<trkpt lat="28.116077" lon="-17.260577">
<ele>948.958500</ele>
<time>2009-06-06T12:34:56.000Z</time>
</trkpt>
<trkpt lat="28.116384" lon="-17.260707">
<ele>949.439200</ele>
<time>2009-06-06T12:35:13.000Z</time>
</trkpt>
<trkpt lat="28.116402" lon="-17.260738">
<ele>950.881100</ele>
<time>2009-06-06T12:35:16.000Z</time>
</trkpt>
<trkpt lat="28.116477" lon="-17.260805">
<ele>951.842500</ele>
<time>2009-06-06T12:35:31.000Z</time>
</trkpt>
<trkpt lat="28.116479" lon="-17.260803">
<ele>952.803700</ele>
<time>2009-06-06T12:35:50.000Z</time>
</trkpt>
<trkpt lat="28.116481" lon="-17.260800">
<ele>950.881100</ele>
<time>2009-06-06T12:35:54.000Z</time>
</trkpt>
<trkpt lat="28.116482" lon="-17.260797">
<ele>952.323000</ele>
<time>2009-06-06T12:35:56.000Z</time>
</trkpt>
<trkpt lat="28.116496" lon="-17.260807">
<ele>951.361800</ele>
<time>2009-06-06T12:35:58.000Z</time>
</trkpt>
<trkpt lat="28.116570" lon="-17.260774">
<ele>952.323000</ele>
<time>2009-06-06T12:36:23.000Z</time>
</trkpt>
<trkpt lat="28.116678" lon="-17.260652">
<ele>951.361800</ele>
<time>2009-06-06T12:36:40.000Z</time>
</trkpt>
<trkpt lat="28.116686" lon="-17.260642">
<ele>951.842500</ele>
<time>2009-06-06T12:36:41.000Z</time>
</trkpt>
<trkpt lat="28.116709" lon="-17.260599">
<ele>951.842500</ele>
<time>2009-06-06T12:36:46.000Z</time>
</trkpt>
<trkpt lat="28.116814" lon="-17.260475">
<ele>951.842500</ele>
<time>2009-06-06T12:37:00.000Z</time>
</trkpt>
<trkpt lat="28.116858" lon="-17.260448">
<ele>952.323000</ele>
<time>2009-06-06T12:37:31.000Z</time>
</trkpt>
<trkpt lat="28.116860" lon="-17.260446">
<ele>1291.188000</ele>
<time>2009-06-06T12:38:55.000Z</time>
</trkpt>
<trkpt lat="28.116860" lon="-17.260446">
<ele>1291.188000</ele>
<time>2009-06-06T12:38:56.000Z</time>
</trkpt>
<trkpt lat="28.117070" lon="-17.260242">
<ele>1290.707000</ele>
<time>2009-06-06T12:39:56.000Z</time>
</trkpt>
<trkpt lat="28.117580" lon="-17.260060">
<ele>1290.707000</ele>
<time>2009-06-06T12:40:31.000Z</time>
</trkpt>
<trkpt lat="28.117725" lon="-17.260198">
<ele>1290.227000</ele>
<time>2009-06-06T12:40:43.000Z</time>
</trkpt>
<trkpt lat="28.117773" lon="-17.260250">
<ele>1290.707000</ele>
<time>2009-06-06T12:40:58.000Z</time>
</trkpt>
<trkpt lat="28.117834" lon="-17.260299">
<ele>1290.707000</ele>
<time>2009-06-06T12:41:05.000Z</time>
</trkpt>
<trkpt lat="28.117980" lon="-17.260298">
<ele>1289.265000</ele>
<time>2009-06-06T12:41:21.000Z</time>
</trkpt>
<trkpt lat="28.118165" lon="-17.260000">
<ele>1288.785000</ele>
<time>2009-06-06T12:41:50.000Z</time>
</trkpt>
<trkpt lat="28.118516" lon="-17.259765">
<ele>1288.304000</ele>
<time>2009-06-06T12:42:17.000Z</time>
</trkpt>
<trkpt lat="28.118828" lon="-17.259767">
<ele>1288.304000</ele>
<time>2009-06-06T12:42:39.000Z</time>
</trkpt>
<trkpt lat="28.118917" lon="-17.259747">
<ele>1288.304000</ele>
<time>2009-06-06T12:42:46.000Z</time>
</trkpt>
<trkpt lat="28.119114" lon="-17.259672">
<ele>1288.304000</ele>
<time>2009-06-06T12:43:02.000Z</time>
</trkpt>
<trkpt lat="28.119430" lon="-17.259583">
<ele>1287.823000</ele>
<time>2009-06-06T12:43:29.000Z</time>
</trkpt>
<trkpt lat="28.119463" lon="-17.259628">
<ele>1287.823000</ele>
<time>2009-06-06T12:43:42.000Z</time>
</trkpt>
<trkpt lat="28.119469" lon="-17.259615">
<ele>1286.381000</ele>
<time>2009-06-06T12:43:53.000Z</time>
</trkpt>
<trkpt lat="28.119565" lon="-17.259481">
<ele>1287.343000</ele>
<time>2009-06-06T12:44:06.000Z</time>
</trkpt>
<trkpt lat="28.119649" lon="-17.259436">
<ele>1286.381000</ele>
<time>2009-06-06T12:44:12.000Z</time>
</trkpt>
<trkpt lat="28.119671" lon="-17.259374">
<ele>1285.901000</ele>
<time>2009-06-06T12:44:17.000Z</time>
</trkpt>
<trkpt lat="28.119660" lon="-17.259228">
<ele>1284.939000</ele>
<time>2009-06-06T12:44:31.000Z</time>
</trkpt>
<trkpt lat="28.119540" lon="-17.259108">
<ele>1283.497000</ele>
<time>2009-06-06T12:44:45.000Z</time>
</trkpt>
<trkpt lat="28.119381" lon="-17.258960">
<ele>1283.978000</ele>
<time>2009-06-06T12:44:58.000Z</time>
</trkpt>
<trkpt lat="28.119200" lon="-17.258927">
<ele>1283.017000</ele>
<time>2009-06-06T12:45:14.000Z</time>
</trkpt>
<trkpt lat="28.119069" lon="-17.258953">
<ele>1282.536000</ele>
<time>2009-06-06T12:45:28.000Z</time>
</trkpt>
<trkpt lat="28.119005" lon="-17.258943">
<ele>1281.575000</ele>
<time>2009-06-06T12:45:39.000Z</time>
</trkpt>
<trkpt lat="28.118890" lon="-17.258859">
<ele>1280.133000</ele>
<time>2009-06-06T12:45:52.000Z</time>
</trkpt>
<trkpt lat="28.118642" lon="-17.258625">
<ele>1280.133000</ele>
<time>2009-06-06T12:46:10.000Z</time>
</trkpt>
<trkpt lat="28.118518" lon="-17.258560">
<ele>1279.652000</ele>
<time>2009-06-06T12:46:19.000Z</time>
</trkpt>
<trkpt lat="28.118471" lon="-17.258561">
<ele>1279.652000</ele>
<time>2009-06-06T12:46:22.000Z</time>
</trkpt>
<trkpt lat="28.118402" lon="-17.258558">
<ele>1279.171000</ele>
<time>2009-06-06T12:46:29.000Z</time>
</trkpt>
<trkpt lat="28.118282" lon="-17.258643">
<ele>1278.691000</ele>
<time>2009-06-06T12:46:42.000Z</time>
</trkpt>
<trkpt lat="28.118132" lon="-17.258502">
<ele>1277.729000</ele>
<time>2009-06-06T12:47:18.000Z</time>
</trkpt>
<trkpt lat="28.118046" lon="-17.258235">
<ele>1275.807000</ele>
<time>2009-06-06T12:47:50.000Z</time>
</trkpt>
<trkpt lat="28.118120" lon="-17.258217">
<ele>1273.884000</ele>
<time>2009-06-06T12:48:13.000Z</time>
</trkpt>
<trkpt lat="28.118264" lon="-17.257925">
<ele>1272.442000</ele>
<time>2009-06-06T12:48:28.000Z</time>
</trkpt>
<trkpt lat="28.118332" lon="-17.257801">
<ele>1271.481000</ele>
<time>2009-06-06T12:48:38.000Z</time>
</trkpt>
<trkpt lat="28.118418" lon="-17.257630">
<ele>1271.000000</ele>
<time>2009-06-06T12:48:54.000Z</time>
</trkpt>
<trkpt lat="28.118388" lon="-17.257380">
<ele>1269.078000</ele>
<time>2009-06-06T12:49:12.000Z</time>
</trkpt>
<trkpt lat="28.118360" lon="-17.257347">
<ele>1269.078000</ele>
<time>2009-06-06T12:49:15.000Z</time>
</trkpt>
<trkpt lat="28.118298" lon="-17.257141">
<ele>1266.194000</ele>
<time>2009-06-06T12:49:37.000Z</time>
</trkpt>
<trkpt lat="28.118423" lon="-17.257070">
<ele>1265.713000</ele>
<time>2009-06-06T12:49:52.000Z</time>
</trkpt>
<trkpt lat="28.118637" lon="-17.257040">
<ele>1265.232000</ele>
<time>2009-06-06T12:50:05.000Z</time>
</trkpt>
<trkpt lat="28.118657" lon="-17.257018">
<ele>1265.713000</ele>
<time>2009-06-06T12:50:08.000Z</time>
</trkpt>
<trkpt lat="28.118890" lon="-17.256836">
<ele>1265.232000</ele>
<time>2009-06-06T12:50:33.000Z</time>
</trkpt>
<trkpt lat="28.119109" lon="-17.256792">
<ele>1264.271000</ele>
<time>2009-06-06T12:50:46.000Z</time>
</trkpt>
<trkpt lat="28.119385" lon="-17.256819">
<ele>1264.271000</ele>
<time>2009-06-06T12:51:07.000Z</time>
</trkpt>
<trkpt lat="28.119545" lon="-17.256755">
<ele>1263.790000</ele>
<time>2009-06-06T12:51:17.000Z</time>
</trkpt>
<trkpt lat="28.119652" lon="-17.256599">
<ele>1263.310000</ele>
<time>2009-06-06T12:51:30.000Z</time>
</trkpt>
<trkpt lat="28.119539" lon="-17.256486">
<ele>1262.348000</ele>
<time>2009-06-06T12:51:47.000Z</time>
</trkpt>
<trkpt lat="28.119368" lon="-17.256394">
<ele>1261.387000</ele>
<time>2009-06-06T12:52:05.000Z</time>
</trkpt>
<trkpt lat="28.119082" lon="-17.256283">
<ele>1260.426000</ele>
<time>2009-06-06T12:52:31.000Z</time>
</trkpt>
<trkpt lat="28.118748" lon="-17.255845">
<ele>1257.542000</ele>
<time>2009-06-06T12:53:25.000Z</time>
</trkpt>
<trkpt lat="28.118874" lon="-17.255658">
<ele>1256.100000</ele>
<time>2009-06-06T12:53:44.000Z</time>
</trkpt>
<trkpt lat="28.118979" lon="-17.255468">
<ele>1254.658000</ele>
<time>2009-06-06T12:53:59.000Z</time>
</trkpt>
<trkpt lat="28.119030" lon="-17.255185">
<ele>1253.216000</ele>
<time>2009-06-06T12:54:20.000Z</time>
</trkpt>
<trkpt lat="28.119035" lon="-17.254999">
<ele>1252.735000</ele>
<time>2009-06-06T12:54:34.000Z</time>
</trkpt>
<trkpt lat="28.118968" lon="-17.254853">
<ele>1252.254000</ele>
<time>2009-06-06T12:54:43.000Z</time>
</trkpt>
<trkpt lat="28.118847" lon="-17.254715">
<ele>1250.813000</ele>
<time>2009-06-06T12:54:57.000Z</time>
</trkpt>
<trkpt lat="28.118796" lon="-17.254617">
<ele>1250.332000</ele>
<time>2009-06-06T12:55:09.000Z</time>
</trkpt>
<trkpt lat="28.118715" lon="-17.254506">
<ele>1249.371000</ele>
<time>2009-06-06T12:55:24.000Z</time>
</trkpt>
<trkpt lat="28.118526" lon="-17.254376">
<ele>1248.890000</ele>
<time>2009-06-06T12:55:39.000Z</time>
</trkpt>
<trkpt lat="28.118424" lon="-17.254021">
<ele>1247.448000</ele>
<time>2009-06-06T12:56:02.000Z</time>
</trkpt>
<trkpt lat="28.118435" lon="-17.253673">
<ele>1245.045000</ele>
<time>2009-06-06T12:56:28.000Z</time>
</trkpt>
<trkpt lat="28.118423" lon="-17.253494">
<ele>1245.525000</ele>
<time>2009-06-06T12:56:38.000Z</time>
</trkpt>
<trkpt lat="28.118657" lon="-17.253495">
<ele>1246.006000</ele>
<time>2009-06-06T12:56:53.000Z</time>
</trkpt>
<trkpt lat="28.118667" lon="-17.253497">
<ele>1246.487000</ele>
<time>2009-06-06T12:56:54.000Z</time>
</trkpt>
<trkpt lat="28.118772" lon="-17.253589">
<ele>1247.448000</ele>
<time>2009-06-06T12:57:06.000Z</time>
</trkpt>
<trkpt lat="28.118953" lon="-17.253730">
<ele>1247.929000</ele>
<time>2009-06-06T12:57:22.000Z</time>
</trkpt>
<trkpt lat="28.119074" lon="-17.253881">
<ele>1248.409000</ele>
<time>2009-06-06T12:57:38.000Z</time>
</trkpt>
<trkpt lat="28.119152" lon="-17.253958">
<ele>1248.890000</ele>
<time>2009-06-06T12:57:46.000Z</time>
</trkpt>
<trkpt lat="28.119187" lon="-17.254040">
<ele>1248.409000</ele>
<time>2009-06-06T12:57:51.000Z</time>
</trkpt>
<trkpt lat="28.119261" lon="-17.254044">
<ele>1249.371000</ele>
<time>2009-06-06T12:58:07.000Z</time>
</trkpt>
<trkpt lat="28.119276" lon="-17.254064">
<ele>1248.890000</ele>
<time>2009-06-06T12:58:28.000Z</time>
</trkpt>
<trkpt lat="28.119267" lon="-17.254050">
<ele>1249.371000</ele>
<time>2009-06-06T12:59:08.000Z</time>
</trkpt>
<trkpt lat="28.119282" lon="-17.254067">
<ele>1249.851000</ele>
<time>2009-06-06T13:04:02.000Z</time>
</trkpt>
<trkpt lat="28.119322" lon="-17.254135">
<ele>1249.851000</ele>
<time>2009-06-06T13:04:17.000Z</time>
</trkpt>
<trkpt lat="28.119415" lon="-17.254303">
<ele>1249.371000</ele>
<time>2009-06-06T13:04:34.000Z</time>
</trkpt>
<trkpt lat="28.119534" lon="-17.254398">
<ele>1249.371000</ele>
<time>2009-06-06T13:04:45.000Z</time>
</trkpt>
<trkpt lat="28.119618" lon="-17.254450">
<ele>1248.890000</ele>
<time>2009-06-06T13:05:06.000Z</time>
</trkpt>
<trkpt lat="28.119807" lon="-17.254514">
<ele>1249.851000</ele>
<time>2009-06-06T13:06:29.000Z</time>
</trkpt>
<trkpt lat="28.119845" lon="-17.254485">
<ele>1249.851000</ele>
<time>2009-06-06T13:06:33.000Z</time>
</trkpt>
<trkpt lat="28.119898" lon="-17.254407">
<ele>1249.851000</ele>
<time>2009-06-06T13:06:46.000Z</time>
</trkpt>
<trkpt lat="28.119890" lon="-17.254213">
<ele>1249.371000</ele>
<time>2009-06-06T13:07:07.000Z</time>
</trkpt>
<trkpt lat="28.119860" lon="-17.253970">
<ele>1248.890000</ele>
<time>2009-06-06T13:07:25.000Z</time>
</trkpt>
<trkpt lat="28.119881" lon="-17.253642">
<ele>1250.813000</ele>
<time>2009-06-06T13:07:49.000Z</time>
</trkpt>
<trkpt lat="28.119915" lon="-17.253337">
<ele>1251.293000</ele>
<time>2009-06-06T13:08:09.000Z</time>
</trkpt>
<trkpt lat="28.119840" lon="-17.253098">
<ele>1251.774000</ele>
<time>2009-06-06T13:08:28.000Z</time>
</trkpt>
<trkpt lat="28.119887" lon="-17.252788">
<ele>1252.735000</ele>
<time>2009-06-06T13:08:49.000Z</time>
</trkpt>
<trkpt lat="28.119966" lon="-17.252486">
<ele>1254.177000</ele>
<time>2009-06-06T13:09:12.000Z</time>
</trkpt>
<trkpt lat="28.119983" lon="-17.252410">
<ele>1254.177000</ele>
<time>2009-06-06T13:09:17.000Z</time>
</trkpt>
<trkpt lat="28.119998" lon="-17.252387">
<ele>1253.697000</ele>
<time>2009-06-06T13:09:19.000Z</time>
</trkpt>
<trkpt lat="28.120033" lon="-17.252255">
<ele>1253.697000</ele>
<time>2009-06-06T13:09:32.000Z</time>
</trkpt>
<trkpt lat="28.120057" lon="-17.252059">
<ele>1255.138000</ele>
<time>2009-06-06T13:09:43.000Z</time>
</trkpt>
<trkpt lat="28.120241" lon="-17.251860">
<ele>1256.100000</ele>
<time>2009-06-06T13:10:03.000Z</time>
</trkpt>
<trkpt lat="28.120303" lon="-17.251810">
<ele>1256.580000</ele>
<time>2009-06-06T13:10:17.000Z</time>
</trkpt>
<trkpt lat="28.120257" lon="-17.251872">
<ele>1255.138000</ele>
<time>2009-06-06T13:11:01.000Z</time>
</trkpt>
<trkpt lat="28.120240" lon="-17.251990">
<ele>1251.774000</ele>
<time>2009-06-06T13:12:12.000Z</time>
</trkpt>
<trkpt lat="28.120138" lon="-17.252219">
<ele>1248.890000</ele>
<time>2009-06-06T13:12:28.000Z</time>
</trkpt>
<trkpt lat="28.120139" lon="-17.252243">
<ele>1248.890000</ele>
<time>2009-06-06T13:12:29.000Z</time>
</trkpt>
<trkpt lat="28.120123" lon="-17.252296">
<ele>1247.929000</ele>
<time>2009-06-06T13:12:33.000Z</time>
</trkpt>
<trkpt lat="28.120110" lon="-17.252338">
<ele>1247.929000</ele>
<time>2009-06-06T13:12:36.000Z</time>
</trkpt>
<trkpt lat="28.120084" lon="-17.252480">
<ele>1246.006000</ele>
<time>2009-06-06T13:12:51.000Z</time>
</trkpt>
<trkpt lat="28.120084" lon="-17.252686">
<ele>1242.641000</ele>
<time>2009-06-06T13:13:12.000Z</time>
</trkpt>
<trkpt lat="28.120019" lon="-17.252960">
<ele>1239.757000</ele>
<time>2009-06-06T13:13:33.000Z</time>
</trkpt>
<trkpt lat="28.120140" lon="-17.253288">
<ele>1237.354000</ele>
<time>2009-06-06T13:13:58.000Z</time>
</trkpt>
<trkpt lat="28.120105" lon="-17.253460">
<ele>1234.470000</ele>
<time>2009-06-06T13:16:08.000Z</time>
</trkpt>
<trkpt lat="28.120232" lon="-17.253762">
<ele>1231.106000</ele>
<time>2009-06-06T13:16:28.000Z</time>
</trkpt>
<trkpt lat="28.120288" lon="-17.254057">
<ele>1228.222000</ele>
<time>2009-06-06T13:16:46.000Z</time>
</trkpt>
<trkpt lat="28.120359" lon="-17.254280">
<ele>1226.299000</ele>
<time>2009-06-06T13:17:08.000Z</time>
</trkpt>
<trkpt lat="28.120475" lon="-17.254657">
<ele>1223.896000</ele>
<time>2009-06-06T13:17:32.000Z</time>
</trkpt>
<trkpt lat="28.120618" lon="-17.254883">
<ele>1221.492000</ele>
<time>2009-06-06T13:17:49.000Z</time>
</trkpt>
<trkpt lat="28.120699" lon="-17.255060">
<ele>1220.531000</ele>
<time>2009-06-06T13:18:01.000Z</time>
</trkpt>
<trkpt lat="28.120752" lon="-17.255118">
<ele>1219.570000</ele>
<time>2009-06-06T13:18:22.000Z</time>
</trkpt>
<trkpt lat="28.120850" lon="-17.255340">
<ele>1218.128000</ele>
<time>2009-06-06T13:19:05.000Z</time>
</trkpt>
<trkpt lat="28.120917" lon="-17.255454">
<ele>1216.686000</ele>
<time>2009-06-06T13:19:19.000Z</time>
</trkpt>
<trkpt lat="28.121032" lon="-17.255600">
<ele>1214.763000</ele>
<time>2009-06-06T13:19:37.000Z</time>
</trkpt>
<trkpt lat="28.121067" lon="-17.255651">
<ele>1213.321000</ele>
<time>2009-06-06T13:19:55.000Z</time>
</trkpt>
<trkpt lat="28.121188" lon="-17.255783">
<ele>1211.879000</ele>
<time>2009-06-06T13:20:07.000Z</time>
</trkpt>
<trkpt lat="28.121253" lon="-17.255834">
<ele>1210.437000</ele>
<time>2009-06-06T13:20:52.000Z</time>
</trkpt>
<trkpt lat="28.121288" lon="-17.256057">
<ele>1208.995000</ele>
<time>2009-06-06T13:21:14.000Z</time>
</trkpt>
<trkpt lat="28.121331" lon="-17.256354">
<ele>1208.995000</ele>
<time>2009-06-06T13:21:40.000Z</time>
</trkpt>
<trkpt lat="28.121300" lon="-17.256625">
<ele>1208.034000</ele>
<time>2009-06-06T13:22:09.000Z</time>
</trkpt>
<trkpt lat="28.121304" lon="-17.256797">
<ele>1207.073000</ele>
<time>2009-06-06T13:22:21.000Z</time>
</trkpt>
<trkpt lat="28.121148" lon="-17.257065">
<ele>1205.150000</ele>
<time>2009-06-06T13:22:42.000Z</time>
</trkpt>
<trkpt lat="28.121128" lon="-17.257145">
<ele>1204.189000</ele>
<time>2009-06-06T13:22:47.000Z</time>
</trkpt>
<trkpt lat="28.121114" lon="-17.257166">
<ele>1203.708000</ele>
<time>2009-06-06T13:22:49.000Z</time>
</trkpt>
<trkpt lat="28.121132" lon="-17.257316">
<ele>1202.747000</ele>
<time>2009-06-06T13:23:00.000Z</time>
</trkpt>
<trkpt lat="28.121207" lon="-17.257440">
<ele>1200.824000</ele>
<time>2009-06-06T13:23:14.000Z</time>
</trkpt>
<trkpt lat="28.121333" lon="-17.257520">
<ele>1198.901000</ele>
<time>2009-06-06T13:23:28.000Z</time>
</trkpt>
<trkpt lat="28.121568" lon="-17.257620">
<ele>1196.498000</ele>
<time>2009-06-06T13:23:53.000Z</time>
</trkpt>
<trkpt lat="28.121724" lon="-17.257872">
<ele>1195.056000</ele>
<time>2009-06-06T13:24:17.000Z</time>
</trkpt>
<trkpt lat="28.121791" lon="-17.258166">
<ele>1193.133000</ele>
<time>2009-06-06T13:24:42.000Z</time>
</trkpt>
<trkpt lat="28.121656" lon="-17.258432">
<ele>1191.691000</ele>
<time>2009-06-06T13:25:06.000Z</time>
</trkpt>
<trkpt lat="28.121502" lon="-17.258695">
<ele>1191.211000</ele>
<time>2009-06-06T13:25:28.000Z</time>
</trkpt>
<trkpt lat="28.121562" lon="-17.258910">
<ele>1189.769000</ele>
<time>2009-06-06T13:25:46.000Z</time>
</trkpt>
<trkpt lat="28.121618" lon="-17.259019">
<ele>1189.769000</ele>
<time>2009-06-06T13:25:56.000Z</time>
</trkpt>
<trkpt lat="28.121847" lon="-17.259245">
<ele>1187.846000</ele>
<time>2009-06-06T13:26:22.000Z</time>
</trkpt>
<trkpt lat="28.121991" lon="-17.259518">
<ele>1186.885000</ele>
<time>2009-06-06T13:26:46.000Z</time>
</trkpt>
<trkpt lat="28.122076" lon="-17.259843">
<ele>1186.885000</ele>
<time>2009-06-06T13:27:09.000Z</time>
</trkpt>
<trkpt lat="28.122060" lon="-17.260123">
<ele>1185.924000</ele>
<time>2009-06-06T13:27:35.000Z</time>
</trkpt>
<trkpt lat="28.122130" lon="-17.260547">
<ele>1182.559000</ele>
<time>2009-06-06T13:28:05.000Z</time>
</trkpt>
<trkpt lat="28.122169" lon="-17.260717">
<ele>1181.598000</ele>
<time>2009-06-06T13:28:27.000Z</time>
</trkpt>
<trkpt lat="28.122198" lon="-17.261000">
<ele>1178.714000</ele>
<time>2009-06-06T13:28:50.000Z</time>
</trkpt>
<trkpt lat="28.122285" lon="-17.261213">
<ele>1176.791000</ele>
<time>2009-06-06T13:29:09.000Z</time>
</trkpt>
<trkpt lat="28.122378" lon="-17.261380">
<ele>1176.310000</ele>
<time>2009-06-06T13:29:29.000Z</time>
</trkpt>
<trkpt lat="28.122468" lon="-17.261687">
<ele>1175.830000</ele>
<time>2009-06-06T13:29:50.000Z</time>
</trkpt>
<trkpt lat="28.122532" lon="-17.261810">
<ele>1175.349000</ele>
<time>2009-06-06T13:30:04.000Z</time>
</trkpt>
<trkpt lat="28.122563" lon="-17.261977">
<ele>1175.830000</ele>
<time>2009-06-06T13:30:18.000Z</time>
</trkpt>
<trkpt lat="28.122639" lon="-17.262226">
<ele>1175.830000</ele>
<time>2009-06-06T13:30:41.000Z</time>
</trkpt>
<trkpt lat="28.122668" lon="-17.262469">
<ele>1175.349000</ele>
<time>2009-06-06T13:31:03.000Z</time>
</trkpt>
<trkpt lat="28.122684" lon="-17.262640">
<ele>1175.830000</ele>
<time>2009-06-06T13:31:24.000Z</time>
</trkpt>
<trkpt lat="28.122784" lon="-17.262898">
<ele>1175.349000</ele>
<time>2009-06-06T13:31:45.000Z</time>
</trkpt>
<trkpt lat="28.122760" lon="-17.263170">
<ele>1172.946000</ele>
<time>2009-06-06T13:32:05.000Z</time>
</trkpt>
<trkpt lat="28.122764" lon="-17.263361">
<ele>1172.465000</ele>
<time>2009-06-06T13:32:18.000Z</time>
</trkpt>
<trkpt lat="28.122731" lon="-17.263495">
<ele>1172.946000</ele>
<time>2009-06-06T13:32:33.000Z</time>
</trkpt>
<trkpt lat="28.122684" lon="-17.263659">
<ele>1172.946000</ele>
<time>2009-06-06T13:32:49.000Z</time>
</trkpt>
<trkpt lat="28.122659" lon="-17.263860">
<ele>1172.465000</ele>
<time>2009-06-06T13:33:01.000Z</time>
</trkpt>
<trkpt lat="28.122608" lon="-17.263976">
<ele>1171.504000</ele>
<time>2009-06-06T13:33:16.000Z</time>
</trkpt>
<trkpt lat="28.122473" lon="-17.264186">
<ele>1171.504000</ele>
<time>2009-06-06T13:33:33.000Z</time>
</trkpt>
<trkpt lat="28.122378" lon="-17.264320">
<ele>1170.062000</ele>
<time>2009-06-06T13:33:47.000Z</time>
</trkpt>
<trkpt lat="28.122329" lon="-17.264458">
<ele>1169.581000</ele>
<time>2009-06-06T13:33:59.000Z</time>
</trkpt>
<trkpt lat="28.122289" lon="-17.264610">
<ele>1169.581000</ele>
<time>2009-06-06T13:34:12.000Z</time>
</trkpt>
<trkpt lat="28.122286" lon="-17.264723">
<ele>1169.101000</ele>
<time>2009-06-06T13:35:11.000Z</time>
</trkpt>
<trkpt lat="28.122189" lon="-17.264774">
<ele>1169.581000</ele>
<time>2009-06-06T13:35:35.000Z</time>
</trkpt>
<trkpt lat="28.122088" lon="-17.264982">
<ele>1168.139000</ele>
<time>2009-06-06T13:35:56.000Z</time>
</trkpt>
<trkpt lat="28.122052" lon="-17.265152">
<ele>1168.139000</ele>
<time>2009-06-06T13:36:10.000Z</time>
</trkpt>
<trkpt lat="28.122059" lon="-17.265319">
<ele>1166.697000</ele>
<time>2009-06-06T13:36:24.000Z</time>
</trkpt>
<trkpt lat="28.122055" lon="-17.265497">
<ele>1165.736000</ele>
<time>2009-06-06T13:36:39.000Z</time>
</trkpt>
<trkpt lat="28.122100" lon="-17.265655">
<ele>1165.255000</ele>
<time>2009-06-06T13:36:52.000Z</time>
</trkpt>
<trkpt lat="28.122071" lon="-17.265866">
<ele>1165.255000</ele>
<time>2009-06-06T13:37:09.000Z</time>
</trkpt>
<trkpt lat="28.122059" lon="-17.265968">
<ele>1164.775000</ele>
<time>2009-06-06T13:37:26.000Z</time>
</trkpt>
<trkpt lat="28.122041" lon="-17.266174">
<ele>1163.333000</ele>
<time>2009-06-06T13:37:42.000Z</time>
</trkpt>
<trkpt lat="28.122054" lon="-17.266284">
<ele>1163.333000</ele>
<time>2009-06-06T13:37:48.000Z</time>
</trkpt>
<trkpt lat="28.122067" lon="-17.266319">
<ele>1162.852000</ele>
<time>2009-06-06T13:37:50.000Z</time>
</trkpt>
<trkpt lat="28.122032" lon="-17.266437">
<ele>1162.852000</ele>
<time>2009-06-06T13:38:00.000Z</time>
</trkpt>
<trkpt lat="28.122011" lon="-17.266526">
<ele>1162.852000</ele>
<time>2009-06-06T13:38:14.000Z</time>
</trkpt>
<trkpt lat="28.121990" lon="-17.266650">
<ele>1161.891000</ele>
<time>2009-06-06T13:38:27.000Z</time>
</trkpt>
<trkpt lat="28.121974" lon="-17.266693">
<ele>1161.891000</ele>
<time>2009-06-06T13:38:32.000Z</time>
</trkpt>
<trkpt lat="28.121978" lon="-17.266755">
<ele>1161.891000</ele>
<time>2009-06-06T13:38:36.000Z</time>
</trkpt>
<trkpt lat="28.121982" lon="-17.266917">
<ele>1160.929000</ele>
<time>2009-06-06T13:38:52.000Z</time>
</trkpt>
<trkpt lat="28.121952" lon="-17.266932">
<ele>1159.968000</ele>
<time>2009-06-06T13:39:33.000Z</time>
</trkpt>
<trkpt lat="28.121974" lon="-17.266940">
<ele>1159.487000</ele>
<time>2009-06-06T13:39:54.000Z</time>
</trkpt>
<trkpt lat="28.121997" lon="-17.267049">
<ele>1159.007000</ele>
<time>2009-06-06T13:40:02.000Z</time>
</trkpt>
<trkpt lat="28.122018" lon="-17.267112">
<ele>1158.526000</ele>
<time>2009-06-06T13:40:07.000Z</time>
</trkpt>
<trkpt lat="28.122024" lon="-17.267326">
<ele>1156.603000</ele>
<time>2009-06-06T13:40:22.000Z</time>
</trkpt>
<trkpt lat="28.121948" lon="-17.267487">
<ele>1154.200000</ele>
<time>2009-06-06T13:40:37.000Z</time>
</trkpt>
<trkpt lat="28.121986" lon="-17.267620">
<ele>1151.797000</ele>
<time>2009-06-06T13:40:44.000Z</time>
</trkpt>
<trkpt lat="28.121943" lon="-17.267786">
<ele>1150.835000</ele>
<time>2009-06-06T13:40:57.000Z</time>
</trkpt>
<trkpt lat="28.121932" lon="-17.267856">
<ele>1144.587000</ele>
<time>2009-06-06T13:41:03.000Z</time>
</trkpt>
<trkpt lat="28.121928" lon="-17.267862">
<ele>1150.835000</ele>
<time>2009-06-06T13:41:04.000Z</time>
</trkpt>
<trkpt lat="28.121930" lon="-17.267903">
<ele>1149.394000</ele>
<time>2009-06-06T13:41:07.000Z</time>
</trkpt>
<trkpt lat="28.121943" lon="-17.267985">
<ele>1149.394000</ele>
<time>2009-06-06T13:41:13.000Z</time>
</trkpt>
<trkpt lat="28.121936" lon="-17.268025">
<ele>1148.913000</ele>
<time>2009-06-06T13:41:16.000Z</time>
</trkpt>
<trkpt lat="28.121938" lon="-17.268081">
<ele>1148.432000</ele>
<time>2009-06-06T13:41:20.000Z</time>
</trkpt>
<trkpt lat="28.121919" lon="-17.268225">
<ele>1146.990000</ele>
<time>2009-06-06T13:41:32.000Z</time>
</trkpt>
<trkpt lat="28.121911" lon="-17.268247">
<ele>1146.990000</ele>
<time>2009-06-06T13:41:34.000Z</time>
</trkpt>
<trkpt lat="28.121905" lon="-17.268294">
<ele>1146.029000</ele>
<time>2009-06-06T13:41:38.000Z</time>
</trkpt>
<trkpt lat="28.121914" lon="-17.268406">
<ele>1145.548000</ele>
<time>2009-06-06T13:41:50.000Z</time>
</trkpt>
<trkpt lat="28.121912" lon="-17.268420">
<ele>1145.067000</ele>
<time>2009-06-06T13:41:51.000Z</time>
</trkpt>
<trkpt lat="28.121953" lon="-17.268561">
<ele>1144.106000</ele>
<time>2009-06-06T13:42:03.000Z</time>
</trkpt>
<trkpt lat="28.121978" lon="-17.268688">
<ele>1144.106000</ele>
<time>2009-06-06T13:42:14.000Z</time>
</trkpt>
<trkpt lat="28.122017" lon="-17.268770">
<ele>1143.625000</ele>
<time>2009-06-06T13:42:19.000Z</time>
</trkpt>
<trkpt lat="28.122015" lon="-17.268812">
<ele>1144.106000</ele>
<time>2009-06-06T13:42:22.000Z</time>
</trkpt>
<trkpt lat="28.122054" lon="-17.268896">
<ele>1144.106000</ele>
<time>2009-06-06T13:42:29.000Z</time>
</trkpt>
<trkpt lat="28.122077" lon="-17.269077">
<ele>1144.106000</ele>
<time>2009-06-06T13:42:43.000Z</time>
</trkpt>
<trkpt lat="28.122150" lon="-17.269250">
<ele>1144.106000</ele>
<time>2009-06-06T13:42:55.000Z</time>
</trkpt>
<trkpt lat="28.122181" lon="-17.269360">
<ele>1144.587000</ele>
<time>2009-06-06T13:43:08.000Z</time>
</trkpt>
<trkpt lat="28.122237" lon="-17.269541">
<ele>1144.587000</ele>
<time>2009-06-06T13:43:34.000Z</time>
</trkpt>
<trkpt lat="28.122263" lon="-17.269567">
<ele>1144.587000</ele>
<time>2009-06-06T13:43:54.000Z</time>
</trkpt>
<trkpt lat="28.122295" lon="-17.269660">
<ele>1143.625000</ele>
<time>2009-06-06T13:44:23.000Z</time>
</trkpt>
<trkpt lat="28.122311" lon="-17.269731">
<ele>1144.106000</ele>
<time>2009-06-06T13:44:50.000Z</time>
</trkpt>
<trkpt lat="28.122330" lon="-17.269841">
<ele>1140.261000</ele>
<time>2009-06-06T13:45:00.000Z</time>
</trkpt>
<trkpt lat="28.122333" lon="-17.269852">
<ele>1146.510000</ele>
<time>2009-06-06T13:45:01.000Z</time>
</trkpt>
<trkpt lat="28.122338" lon="-17.269865">
<ele>1144.587000</ele>
<time>2009-06-06T13:45:02.000Z</time>
</trkpt>
<trkpt lat="28.122356" lon="-17.269888">
<ele>1143.625000</ele>
<time>2009-06-06T13:45:04.000Z</time>
</trkpt>
<trkpt lat="28.122444" lon="-17.270027">
<ele>1144.106000</ele>
<time>2009-06-06T13:45:16.000Z</time>
</trkpt>
<trkpt lat="28.122540" lon="-17.270176">
<ele>1146.510000</ele>
<time>2009-06-06T13:45:30.000Z</time>
</trkpt>
<trkpt lat="28.122590" lon="-17.270205">
<ele>1145.548000</ele>
<time>2009-06-06T13:45:47.000Z</time>
</trkpt>
<trkpt lat="28.122720" lon="-17.270278">
<ele>1144.587000</ele>
<time>2009-06-06T13:46:01.000Z</time>
</trkpt>
<trkpt lat="28.122771" lon="-17.270354">
<ele>1144.106000</ele>
<time>2009-06-06T13:46:09.000Z</time>
</trkpt>
<trkpt lat="28.122759" lon="-17.270530">
<ele>1144.587000</ele>
<time>2009-06-06T13:46:22.000Z</time>
</trkpt>
<trkpt lat="28.122758" lon="-17.270540">
<ele>1143.625000</ele>
<time>2009-06-06T13:46:23.000Z</time>
</trkpt>
<trkpt lat="28.122741" lon="-17.270725">
<ele>1142.664000</ele>
<time>2009-06-06T13:46:40.000Z</time>
</trkpt>
<trkpt lat="28.122817" lon="-17.270772">
<ele>1142.184000</ele>
<time>2009-06-06T13:47:01.000Z</time>
</trkpt>
<trkpt lat="28.122745" lon="-17.270747">
<ele>1141.703000</ele>
<time>2009-06-06T13:48:20.000Z</time>
</trkpt>
<trkpt lat="28.122843" lon="-17.270741">
<ele>1140.261000</ele>
<time>2009-06-06T13:49:31.000Z</time>
</trkpt>
<trkpt lat="28.122795" lon="-17.270748">
<ele>1139.780000</ele>
<time>2009-06-06T13:51:06.000Z</time>
</trkpt>
<trkpt lat="28.122714" lon="-17.270648">
<ele>1136.416000</ele>
<time>2009-06-06T13:52:34.000Z</time>
</trkpt>
<trkpt lat="28.122596" lon="-17.270481">
<ele>1133.051000</ele>
<time>2009-06-06T13:52:53.000Z</time>
</trkpt>
<trkpt lat="28.122431" lon="-17.270441">
<ele>1131.128000</ele>
<time>2009-06-06T13:53:07.000Z</time>
</trkpt>
<trkpt lat="28.122278" lon="-17.270421">
<ele>1130.167000</ele>
<time>2009-06-06T13:53:19.000Z</time>
</trkpt>
<trkpt lat="28.122148" lon="-17.270374">
<ele>1128.725000</ele>
<time>2009-06-06T13:53:33.000Z</time>
</trkpt>
<trkpt lat="28.122030" lon="-17.270406">
<ele>1127.764000</ele>
<time>2009-06-06T13:53:48.000Z</time>
</trkpt>
<trkpt lat="28.121910" lon="-17.270520">
<ele>1128.725000</ele>
<time>2009-06-06T13:54:00.000Z</time>
</trkpt>
<trkpt lat="28.121840" lon="-17.270656">
<ele>1130.167000</ele>
<time>2009-06-06T13:54:13.000Z</time>
</trkpt>
<trkpt lat="28.121748" lon="-17.270789">
<ele>1132.090000</ele>
<time>2009-06-06T13:54:28.000Z</time>
</trkpt>
<trkpt lat="28.121695" lon="-17.270897">
<ele>1133.532000</ele>
<time>2009-06-06T13:54:41.000Z</time>
</trkpt>
<trkpt lat="28.121616" lon="-17.271041">
<ele>1134.974000</ele>
<time>2009-06-06T13:54:55.000Z</time>
</trkpt>
<trkpt lat="28.121573" lon="-17.271184">
<ele>1136.416000</ele>
<time>2009-06-06T13:55:07.000Z</time>
</trkpt>
<trkpt lat="28.121558" lon="-17.271225">
<ele>1136.896000</ele>
<time>2009-06-06T13:55:11.000Z</time>
</trkpt>
<trkpt lat="28.121550" lon="-17.271249">
<ele>1136.896000</ele>
<time>2009-06-06T13:55:14.000Z</time>
</trkpt>
<trkpt lat="28.121537" lon="-17.271273">
<ele>1137.377000</ele>
<time>2009-06-06T13:55:16.000Z</time>
</trkpt>
<trkpt lat="28.121524" lon="-17.271306">
<ele>1137.858000</ele>
<time>2009-06-06T13:55:19.000Z</time>
</trkpt>
<trkpt lat="28.121482" lon="-17.271347">
<ele>1138.338000</ele>
<time>2009-06-06T13:55:25.000Z</time>
</trkpt>
<trkpt lat="28.121383" lon="-17.271484">
<ele>1138.819000</ele>
<time>2009-06-06T13:55:40.000Z</time>
</trkpt>
<trkpt lat="28.121292" lon="-17.271631">
<ele>1140.261000</ele>
<time>2009-06-06T13:55:55.000Z</time>
</trkpt>
<trkpt lat="28.121286" lon="-17.271640">
<ele>1140.261000</ele>
<time>2009-06-06T13:55:56.000Z</time>
</trkpt>
<trkpt lat="28.121241" lon="-17.271749">
<ele>1141.222000</ele>
<time>2009-06-06T13:56:10.000Z</time>
</trkpt>
<trkpt lat="28.121215" lon="-17.271904">
<ele>1142.184000</ele>
<time>2009-06-06T13:56:26.000Z</time>
</trkpt>
<trkpt lat="28.121165" lon="-17.272036">
<ele>1142.664000</ele>
<time>2009-06-06T13:56:36.000Z</time>
</trkpt>
<trkpt lat="28.121157" lon="-17.272059">
<ele>1142.664000</ele>
<time>2009-06-06T13:56:38.000Z</time>
</trkpt>
<trkpt lat="28.121105" lon="-17.272232">
<ele>1143.625000</ele>
<time>2009-06-06T13:56:51.000Z</time>
</trkpt>
<trkpt lat="28.121086" lon="-17.272422">
<ele>1144.106000</ele>
<time>2009-06-06T13:57:05.000Z</time>
</trkpt>
<trkpt lat="28.121069" lon="-17.272564">
<ele>1143.145000</ele>
<time>2009-06-06T13:57:18.000Z</time>
</trkpt>
<trkpt lat="28.121029" lon="-17.272789">
<ele>1141.703000</ele>
<time>2009-06-06T13:57:34.000Z</time>
</trkpt>
<trkpt lat="28.120979" lon="-17.272927">
<ele>1141.222000</ele>
<time>2009-06-06T13:57:45.000Z</time>
</trkpt>
<trkpt lat="28.120830" lon="-17.273072">
<ele>1138.819000</ele>
<time>2009-06-06T13:58:02.000Z</time>
</trkpt>
<trkpt lat="28.120755" lon="-17.273115">
<ele>1137.377000</ele>
<time>2009-06-06T13:58:10.000Z</time>
</trkpt>
<trkpt lat="28.120619" lon="-17.273214">
<ele>1135.454000</ele>
<time>2009-06-06T13:58:26.000Z</time>
</trkpt>
<trkpt lat="28.120564" lon="-17.273326">
<ele>1134.493000</ele>
<time>2009-06-06T13:58:37.000Z</time>
</trkpt>
<trkpt lat="28.120511" lon="-17.273517">
<ele>1134.012000</ele>
<time>2009-06-06T13:58:52.000Z</time>
</trkpt>
<trkpt lat="28.120444" lon="-17.273648">
<ele>1134.493000</ele>
<time>2009-06-06T13:59:05.000Z</time>
</trkpt>
<trkpt lat="28.120429" lon="-17.273657">
<ele>1134.493000</ele>
<time>2009-06-06T13:59:22.000Z</time>
</trkpt>
<trkpt lat="28.120371" lon="-17.273747">
<ele>1134.012000</ele>
<time>2009-06-06T13:59:31.000Z</time>
</trkpt>
<trkpt lat="28.120347" lon="-17.273780">
<ele>1134.012000</ele>
<time>2009-06-06T13:59:34.000Z</time>
</trkpt>
<trkpt lat="28.120318" lon="-17.273798">
<ele>1134.012000</ele>
<time>2009-06-06T13:59:37.000Z</time>
</trkpt>
<trkpt lat="28.120165" lon="-17.273965">
<ele>1133.532000</ele>
<time>2009-06-06T13:59:54.000Z</time>
</trkpt>
<trkpt lat="28.120017" lon="-17.274050">
<ele>1132.571000</ele>
<time>2009-06-06T14:00:07.000Z</time>
</trkpt>
<trkpt lat="28.119866" lon="-17.274064">
<ele>1132.571000</ele>
<time>2009-06-06T14:00:20.000Z</time>
</trkpt>
<trkpt lat="28.119717" lon="-17.274045">
<ele>1131.609000</ele>
<time>2009-06-06T14:00:33.000Z</time>
</trkpt>
<trkpt lat="28.119568" lon="-17.274050">
<ele>1131.128000</ele>
<time>2009-06-06T14:00:45.000Z</time>
</trkpt>
<trkpt lat="28.119466" lon="-17.274076">
<ele>1131.128000</ele>
<time>2009-06-06T14:00:55.000Z</time>
</trkpt>
<trkpt lat="28.119326" lon="-17.274186">
<ele>1131.609000</ele>
<time>2009-06-06T14:01:08.000Z</time>
</trkpt>
<trkpt lat="28.119226" lon="-17.274274">
<ele>1131.609000</ele>
<time>2009-06-06T14:01:19.000Z</time>
</trkpt>
<trkpt lat="28.119209" lon="-17.274284">
<ele>1131.609000</ele>
<time>2009-06-06T14:01:21.000Z</time>
</trkpt>
<trkpt lat="28.119155" lon="-17.274359">
<ele>1132.571000</ele>
<time>2009-06-06T14:01:30.000Z</time>
</trkpt>
<trkpt lat="28.119142" lon="-17.274377">
<ele>1133.051000</ele>
<time>2009-06-06T14:01:33.000Z</time>
</trkpt>
<trkpt lat="28.119099" lon="-17.274502">
<ele>1134.493000</ele>
<time>2009-06-06T14:01:46.000Z</time>
</trkpt>
<trkpt lat="28.119081" lon="-17.274588">
<ele>1134.974000</ele>
<time>2009-06-06T14:01:54.000Z</time>
</trkpt>
<trkpt lat="28.119000" lon="-17.274717">
<ele>1135.935000</ele>
<time>2009-06-06T14:02:08.000Z</time>
</trkpt>
<trkpt lat="28.118947" lon="-17.274843">
<ele>1135.454000</ele>
<time>2009-06-06T14:02:25.000Z</time>
</trkpt>
<trkpt lat="28.118891" lon="-17.274873">
<ele>1135.935000</ele>
<time>2009-06-06T14:02:42.000Z</time>
</trkpt>
<trkpt lat="28.118888" lon="-17.274895">
<ele>1135.935000</ele>
<time>2009-06-06T14:03:03.000Z</time>
</trkpt>
<trkpt lat="28.118847" lon="-17.275049">
<ele>1136.416000</ele>
<time>2009-06-06T14:03:17.000Z</time>
</trkpt>
<trkpt lat="28.118829" lon="-17.275153">
<ele>1136.896000</ele>
<time>2009-06-06T14:03:25.000Z</time>
</trkpt>
<trkpt lat="28.118794" lon="-17.275318">
<ele>1137.858000</ele>
<time>2009-06-06T14:03:39.000Z</time>
</trkpt>
<trkpt lat="28.118734" lon="-17.275499">
<ele>1138.338000</ele>
<time>2009-06-06T14:03:52.000Z</time>
</trkpt>
<trkpt lat="28.118656" lon="-17.275695">
<ele>1138.819000</ele>
<time>2009-06-06T14:04:07.000Z</time>
</trkpt>
<trkpt lat="28.118669" lon="-17.275699">
<ele>1139.300000</ele>
<time>2009-06-06T14:04:19.000Z</time>
</trkpt>
<trkpt lat="28.118668" lon="-17.275716">
<ele>1139.300000</ele>
<time>2009-06-06T14:04:31.000Z</time>
</trkpt>
<trkpt lat="28.118616" lon="-17.275869">
<ele>1140.261000</ele>
<time>2009-06-06T14:04:44.000Z</time>
</trkpt>
<trkpt lat="28.118625" lon="-17.275917">
<ele>1139.780000</ele>
<time>2009-06-06T14:04:47.000Z</time>
</trkpt>
<trkpt lat="28.118613" lon="-17.276107">
<ele>1141.703000</ele>
<time>2009-06-06T14:05:01.000Z</time>
</trkpt>
<trkpt lat="28.118584" lon="-17.276153">
<ele>1142.184000</ele>
<time>2009-06-06T14:05:07.000Z</time>
</trkpt>
<trkpt lat="28.118573" lon="-17.276234">
<ele>1143.145000</ele>
<time>2009-06-06T14:05:13.000Z</time>
</trkpt>
<trkpt lat="28.118579" lon="-17.276256">
<ele>1143.145000</ele>
<time>2009-06-06T14:05:15.000Z</time>
</trkpt>
<trkpt lat="28.118518" lon="-17.276382">
<ele>1144.106000</ele>
<time>2009-06-06T14:05:26.000Z</time>
</trkpt>
<trkpt lat="28.118483" lon="-17.276499">
<ele>1143.625000</ele>
<time>2009-06-06T14:05:35.000Z</time>
</trkpt>
<trkpt lat="28.118461" lon="-17.276615">
<ele>1144.587000</ele>
<time>2009-06-06T14:05:43.000Z</time>
</trkpt>
<trkpt lat="28.118447" lon="-17.276668">
<ele>1144.106000</ele>
<time>2009-06-06T14:05:47.000Z</time>
</trkpt>
<trkpt lat="28.118441" lon="-17.276748">
<ele>1144.587000</ele>
<time>2009-06-06T14:05:53.000Z</time>
</trkpt>
<trkpt lat="28.118472" lon="-17.276812">
<ele>1144.587000</ele>
<time>2009-06-06T14:06:06.000Z</time>
</trkpt>
<trkpt lat="28.118463" lon="-17.276872">
<ele>1146.029000</ele>
<time>2009-06-06T14:06:12.000Z</time>
</trkpt>
<trkpt lat="28.118479" lon="-17.276991">
<ele>1146.990000</ele>
<time>2009-06-06T14:06:24.000Z</time>
</trkpt>
<trkpt lat="28.118474" lon="-17.277001">
<ele>1146.990000</ele>
<time>2009-06-06T14:06:25.000Z</time>
</trkpt>
<trkpt lat="28.118468" lon="-17.277081">
<ele>1147.951000</ele>
<time>2009-06-06T14:06:31.000Z</time>
</trkpt>
<trkpt lat="28.118438" lon="-17.277219">
<ele>1148.432000</ele>
<time>2009-06-06T14:06:41.000Z</time>
</trkpt>
<trkpt lat="28.118428" lon="-17.277257">
<ele>1148.432000</ele>
<time>2009-06-06T14:06:44.000Z</time>
</trkpt>
<trkpt lat="28.118341" lon="-17.277395">
<ele>1147.471000</ele>
<time>2009-06-06T14:06:58.000Z</time>
</trkpt>
<trkpt lat="28.118242" lon="-17.277508">
<ele>1146.990000</ele>
<time>2009-06-06T14:07:12.000Z</time>
</trkpt>
<trkpt lat="28.118168" lon="-17.277595">
<ele>1145.548000</ele>
<time>2009-06-06T14:07:24.000Z</time>
</trkpt>
<trkpt lat="28.118059" lon="-17.277784">
<ele>1143.145000</ele>
<time>2009-06-06T14:07:42.000Z</time>
</trkpt>
<trkpt lat="28.118049" lon="-17.277799">
<ele>1142.664000</ele>
<time>2009-06-06T14:07:44.000Z</time>
</trkpt>
<trkpt lat="28.117967" lon="-17.277908">
<ele>1141.222000</ele>
<time>2009-06-06T14:07:59.000Z</time>
</trkpt>
<trkpt lat="28.117946" lon="-17.277942">
<ele>1139.300000</ele>
<time>2009-06-06T14:08:13.000Z</time>
</trkpt>
<trkpt lat="28.117920" lon="-17.277978">
<ele>1138.819000</ele>
<time>2009-06-06T14:08:37.000Z</time>
</trkpt>
<trkpt lat="28.117809" lon="-17.278133">
<ele>1136.896000</ele>
<time>2009-06-06T14:09:51.000Z</time>
</trkpt>
<trkpt lat="28.117710" lon="-17.278269">
<ele>1134.493000</ele>
<time>2009-06-06T14:10:05.000Z</time>
</trkpt>
<trkpt lat="28.117645" lon="-17.278477">
<ele>1132.571000</ele>
<time>2009-06-06T14:10:20.000Z</time>
</trkpt>
<trkpt lat="28.117577" lon="-17.278644">
<ele>1130.648000</ele>
<time>2009-06-06T14:10:33.000Z</time>
</trkpt>
<trkpt lat="28.117512" lon="-17.278824">
<ele>1129.206000</ele>
<time>2009-06-06T14:10:47.000Z</time>
</trkpt>
<trkpt lat="28.117470" lon="-17.279007">
<ele>1128.725000</ele>
<time>2009-06-06T14:11:01.000Z</time>
</trkpt>
<trkpt lat="28.117455" lon="-17.279063">
<ele>1128.244000</ele>
<time>2009-06-06T14:11:05.000Z</time>
</trkpt>
<trkpt lat="28.117449" lon="-17.279145">
<ele>1128.244000</ele>
<time>2009-06-06T14:11:21.000Z</time>
</trkpt>
<trkpt lat="28.117438" lon="-17.279222">
<ele>1127.764000</ele>
<time>2009-06-06T14:12:04.000Z</time>
</trkpt>
<trkpt lat="28.117349" lon="-17.279425">
<ele>1127.764000</ele>
<time>2009-06-06T14:12:20.000Z</time>
</trkpt>
<trkpt lat="28.117287" lon="-17.279595">
<ele>1127.283000</ele>
<time>2009-06-06T14:12:34.000Z</time>
</trkpt>
<trkpt lat="28.117272" lon="-17.279813">
<ele>1125.360000</ele>
<time>2009-06-06T14:12:48.000Z</time>
</trkpt>
<trkpt lat="28.117214" lon="-17.279981">
<ele>1123.438000</ele>
<time>2009-06-06T14:13:02.000Z</time>
</trkpt>
<trkpt lat="28.117116" lon="-17.280153">
<ele>1121.035000</ele>
<time>2009-06-06T14:13:19.000Z</time>
</trkpt>
<trkpt lat="28.117078" lon="-17.280208">
<ele>1120.073000</ele>
<time>2009-06-06T14:13:26.000Z</time>
</trkpt>
<trkpt lat="28.117025" lon="-17.280363">
<ele>1119.112000</ele>
<time>2009-06-06T14:13:41.000Z</time>
</trkpt>
<trkpt lat="28.117016" lon="-17.280465">
<ele>1118.151000</ele>
<time>2009-06-06T14:13:48.000Z</time>
</trkpt>
<trkpt lat="28.116991" lon="-17.280652">
<ele>1116.228000</ele>
<time>2009-06-06T14:14:03.000Z</time>
</trkpt>
<trkpt lat="28.116953" lon="-17.280807">
<ele>1113.824000</ele>
<time>2009-06-06T14:14:16.000Z</time>
</trkpt>
<trkpt lat="28.116965" lon="-17.280865">
<ele>1113.344000</ele>
<time>2009-06-06T14:14:21.000Z</time>
</trkpt>
<trkpt lat="28.117001" lon="-17.280979">
<ele>1113.824000</ele>
<time>2009-06-06T14:14:33.000Z</time>
</trkpt>
<trkpt lat="28.117005" lon="-17.281113">
<ele>1113.824000</ele>
<time>2009-06-06T14:14:45.000Z</time>
</trkpt>
<trkpt lat="28.117000" lon="-17.281207">
<ele>1113.824000</ele>
<time>2009-06-06T14:14:52.000Z</time>
</trkpt>
<trkpt lat="28.117018" lon="-17.281265">
<ele>1114.786000</ele>
<time>2009-06-06T14:14:58.000Z</time>
</trkpt>
<trkpt lat="28.117064" lon="-17.281372">
<ele>1115.267000</ele>
<time>2009-06-06T14:15:13.000Z</time>
</trkpt>
<trkpt lat="28.117130" lon="-17.281440">
<ele>1114.305000</ele>
<time>2009-06-06T14:15:28.000Z</time>
</trkpt>
<trkpt lat="28.117181" lon="-17.281497">
<ele>1111.421000</ele>
<time>2009-06-06T14:15:45.000Z</time>
</trkpt>
<trkpt lat="28.117257" lon="-17.281522">
<ele>1110.460000</ele>
<time>2009-06-06T14:16:01.000Z</time>
</trkpt>
<trkpt lat="28.117283" lon="-17.281533">
<ele>1109.499000</ele>
<time>2009-06-06T14:16:39.000Z</time>
</trkpt>
<trkpt lat="28.117330" lon="-17.281557">
<ele>1107.095000</ele>
<time>2009-06-06T14:16:55.000Z</time>
</trkpt>
<trkpt lat="28.117361" lon="-17.281585">
<ele>1103.731000</ele>
<time>2009-06-06T14:17:19.000Z</time>
</trkpt>
<trkpt lat="28.117395" lon="-17.281636">
<ele>1103.250000</ele>
<time>2009-06-06T14:17:34.000Z</time>
</trkpt>
<trkpt lat="28.117383" lon="-17.281587">
<ele>1104.692000</ele>
<time>2009-06-06T14:17:59.000Z</time>
</trkpt>
<trkpt lat="28.117343" lon="-17.281547">
<ele>1107.095000</ele>
<time>2009-06-06T14:18:13.000Z</time>
</trkpt>
<trkpt lat="28.117292" lon="-17.281505">
<ele>1109.979000</ele>
<time>2009-06-06T14:18:27.000Z</time>
</trkpt>
<trkpt lat="28.117210" lon="-17.281470">
<ele>1112.383000</ele>
<time>2009-06-06T14:18:41.000Z</time>
</trkpt>
<trkpt lat="28.117131" lon="-17.281434">
<ele>1114.305000</ele>
<time>2009-06-06T14:18:54.000Z</time>
</trkpt>
<trkpt lat="28.117076" lon="-17.281342">
<ele>1116.228000</ele>
<time>2009-06-06T14:19:09.000Z</time>
</trkpt>
<trkpt lat="28.117009" lon="-17.281216">
<ele>1114.305000</ele>
<time>2009-06-06T14:19:29.000Z</time>
</trkpt>
<trkpt lat="28.117007" lon="-17.281192">
<ele>1114.305000</ele>
<time>2009-06-06T14:19:31.000Z</time>
</trkpt>
<trkpt lat="28.116998" lon="-17.280999">
<ele>1113.824000</ele>
<time>2009-06-06T14:19:45.000Z</time>
</trkpt>
<trkpt lat="28.116941" lon="-17.280919">
<ele>1111.902000</ele>
<time>2009-06-06T14:19:58.000Z</time>
</trkpt>
<trkpt lat="28.116914" lon="-17.280991">
<ele>1111.421000</ele>
<time>2009-06-06T14:20:03.000Z</time>
</trkpt>
<trkpt lat="28.116858" lon="-17.281167">
<ele>1109.499000</ele>
<time>2009-06-06T14:20:16.000Z</time>
</trkpt>
<trkpt lat="28.116828" lon="-17.281354">
<ele>1107.576000</ele>
<time>2009-06-06T14:20:30.000Z</time>
</trkpt>
<trkpt lat="28.116761" lon="-17.281530">
<ele>1106.134000</ele>
<time>2009-06-06T14:20:45.000Z</time>
</trkpt>
<trkpt lat="28.116740" lon="-17.281605">
<ele>1103.250000</ele>
<time>2009-06-06T14:20:52.000Z</time>
</trkpt>
<trkpt lat="28.116688" lon="-17.281733">
<ele>1103.731000</ele>
<time>2009-06-06T14:21:05.000Z</time>
</trkpt>
<trkpt lat="28.116646" lon="-17.281927">
<ele>1101.328000</ele>
<time>2009-06-06T14:21:19.000Z</time>
</trkpt>
<trkpt lat="28.116598" lon="-17.282073">
<ele>1098.443000</ele>
<time>2009-06-06T14:21:32.000Z</time>
</trkpt>
<trkpt lat="28.116554" lon="-17.282267">
<ele>1097.001000</ele>
<time>2009-06-06T14:21:46.000Z</time>
</trkpt>
<trkpt lat="28.116472" lon="-17.282432">
<ele>1094.118000</ele>
<time>2009-06-06T14:22:01.000Z</time>
</trkpt>
<trkpt lat="28.116414" lon="-17.282537">
<ele>1092.676000</ele>
<time>2009-06-06T14:22:09.000Z</time>
</trkpt>
<trkpt lat="28.116398" lon="-17.282580">
<ele>1092.195000</ele>
<time>2009-06-06T14:22:13.000Z</time>
</trkpt>
<trkpt lat="28.116348" lon="-17.282723">
<ele>1090.272000</ele>
<time>2009-06-06T14:22:24.000Z</time>
</trkpt>
<trkpt lat="28.116268" lon="-17.282876">
<ele>1088.350000</ele>
<time>2009-06-06T14:22:39.000Z</time>
</trkpt>
<trkpt lat="28.116240" lon="-17.282908">
<ele>1087.869000</ele>
<time>2009-06-06T14:22:43.000Z</time>
</trkpt>
<trkpt lat="28.116214" lon="-17.282946">
<ele>1087.388000</ele>
<time>2009-06-06T14:22:47.000Z</time>
</trkpt>
<trkpt lat="28.116118" lon="-17.283080">
<ele>1084.505000</ele>
<time>2009-06-06T14:23:02.000Z</time>
</trkpt>
<trkpt lat="28.116070" lon="-17.283181">
<ele>1083.543000</ele>
<time>2009-06-06T14:23:11.000Z</time>
</trkpt>
<trkpt lat="28.116055" lon="-17.283333">
<ele>1081.620000</ele>
<time>2009-06-06T14:23:23.000Z</time>
</trkpt>
<trkpt lat="28.116171" lon="-17.283349">
<ele>1079.698000</ele>
<time>2009-06-06T14:23:40.000Z</time>
</trkpt>
<trkpt lat="28.116293" lon="-17.283312">
<ele>1076.814000</ele>
<time>2009-06-06T14:24:00.000Z</time>
</trkpt>
<trkpt lat="28.116395" lon="-17.283278">
<ele>1075.853000</ele>
<time>2009-06-06T14:24:09.000Z</time>
</trkpt>
<trkpt lat="28.116561" lon="-17.283276">
<ele>1073.449000</ele>
<time>2009-06-06T14:24:24.000Z</time>
</trkpt>
<trkpt lat="28.116676" lon="-17.283248">
<ele>1070.085000</ele>
<time>2009-06-06T14:24:38.000Z</time>
</trkpt>
<trkpt lat="28.116698" lon="-17.283224">
<ele>1069.124000</ele>
<time>2009-06-06T14:24:43.000Z</time>
</trkpt>
<trkpt lat="28.116809" lon="-17.283195">
<ele>1068.162000</ele>
<time>2009-06-06T14:25:02.000Z</time>
</trkpt>
<trkpt lat="28.117001" lon="-17.283184">
<ele>1067.201000</ele>
<time>2009-06-06T14:25:20.000Z</time>
</trkpt>
<trkpt lat="28.117087" lon="-17.283157">
<ele>1065.278000</ele>
<time>2009-06-06T14:25:43.000Z</time>
</trkpt>
<trkpt lat="28.117254" lon="-17.283052">
<ele>1063.836000</ele>
<time>2009-06-06T14:26:02.000Z</time>
</trkpt>
<trkpt lat="28.117372" lon="-17.282996">
<ele>1061.914000</ele>
<time>2009-06-06T14:26:16.000Z</time>
</trkpt>
<trkpt lat="28.117558" lon="-17.282916">
<ele>1060.471000</ele>
<time>2009-06-06T14:26:32.000Z</time>
</trkpt>
<trkpt lat="28.117664" lon="-17.282798">
<ele>1059.991000</ele>
<time>2009-06-06T14:26:52.000Z</time>
</trkpt>
<trkpt lat="28.117714" lon="-17.282786">
<ele>1059.510000</ele>
<time>2009-06-06T14:27:03.000Z</time>
</trkpt>
<trkpt lat="28.117936" lon="-17.282813">
<ele>1059.030000</ele>
<time>2009-06-06T14:27:18.000Z</time>
</trkpt>
<trkpt lat="28.118055" lon="-17.282915">
<ele>1059.030000</ele>
<time>2009-06-06T14:27:33.000Z</time>
</trkpt>
<trkpt lat="28.118188" lon="-17.283010">
<ele>1059.510000</ele>
<time>2009-06-06T14:27:46.000Z</time>
</trkpt>
<trkpt lat="28.118207" lon="-17.283015">
<ele>1059.510000</ele>
<time>2009-06-06T14:27:48.000Z</time>
</trkpt>
<trkpt lat="28.118246" lon="-17.283045">
<ele>1059.991000</ele>
<time>2009-06-06T14:27:51.000Z</time>
</trkpt>
<trkpt lat="28.118264" lon="-17.283048">
<ele>1059.991000</ele>
<time>2009-06-06T14:27:53.000Z</time>
</trkpt>
<trkpt lat="28.118404" lon="-17.283121">
<ele>1060.952000</ele>
<time>2009-06-06T14:28:08.000Z</time>
</trkpt>
<trkpt lat="28.118492" lon="-17.283113">
<ele>1059.510000</ele>
<time>2009-06-06T14:28:18.000Z</time>
</trkpt>
<trkpt lat="28.118667" lon="-17.283079">
<ele>1057.588000</ele>
<time>2009-06-06T14:28:37.000Z</time>
</trkpt>
<trkpt lat="28.118915" lon="-17.282978">
<ele>1054.704000</ele>
<time>2009-06-06T14:28:57.000Z</time>
</trkpt>
<trkpt lat="28.119095" lon="-17.282877">
<ele>1053.262000</ele>
<time>2009-06-06T14:29:15.000Z</time>
</trkpt>
<trkpt lat="28.119154" lon="-17.282920">
<ele>1052.781000</ele>
<time>2009-06-06T14:29:22.000Z</time>
</trkpt>
<trkpt lat="28.119202" lon="-17.283072">
<ele>1053.262000</ele>
<time>2009-06-06T14:29:36.000Z</time>
</trkpt>
<trkpt lat="28.119295" lon="-17.283205">
<ele>1055.184000</ele>
<time>2009-06-06T14:29:47.000Z</time>
</trkpt>
<trkpt lat="28.119332" lon="-17.283277">
<ele>1055.184000</ele>
<time>2009-06-06T14:29:54.000Z</time>
</trkpt>
<trkpt lat="28.119329" lon="-17.283307">
<ele>1055.665000</ele>
<time>2009-06-06T14:29:58.000Z</time>
</trkpt>
<trkpt lat="28.119311" lon="-17.283365">
<ele>1055.665000</ele>
<time>2009-06-06T14:30:03.000Z</time>
</trkpt>
<trkpt lat="28.119235" lon="-17.283550">
<ele>1052.781000</ele>
<time>2009-06-06T14:30:19.000Z</time>
</trkpt>
<trkpt lat="28.119154" lon="-17.283693">
<ele>1049.897000</ele>
<time>2009-06-06T14:30:35.000Z</time>
</trkpt>
<trkpt lat="28.119144" lon="-17.283760">
<ele>1048.455000</ele>
<time>2009-06-06T14:30:49.000Z</time>
</trkpt>
<trkpt lat="28.119035" lon="-17.283951">
<ele>1045.571000</ele>
<time>2009-06-06T14:31:06.000Z</time>
</trkpt>
<trkpt lat="28.118974" lon="-17.284039">
<ele>1044.129000</ele>
<time>2009-06-06T14:31:24.000Z</time>
</trkpt>
<trkpt lat="28.118883" lon="-17.284118">
<ele>1041.726000</ele>
<time>2009-06-06T14:31:39.000Z</time>
</trkpt>
<trkpt lat="28.118789" lon="-17.284253">
<ele>1040.284000</ele>
<time>2009-06-06T14:31:58.000Z</time>
</trkpt>
<trkpt lat="28.118705" lon="-17.284335">
<ele>1039.803000</ele>
<time>2009-06-06T14:32:19.000Z</time>
</trkpt>
<trkpt lat="28.118614" lon="-17.284486">
<ele>1039.323000</ele>
<time>2009-06-06T14:32:34.000Z</time>
</trkpt>
<trkpt lat="28.118480" lon="-17.284641">
<ele>1039.323000</ele>
<time>2009-06-06T14:32:51.000Z</time>
</trkpt>
<trkpt lat="28.118372" lon="-17.284821">
<ele>1039.323000</ele>
<time>2009-06-06T14:33:07.000Z</time>
</trkpt>
<trkpt lat="28.118308" lon="-17.285004">
<ele>1039.323000</ele>
<time>2009-06-06T14:33:23.000Z</time>
</trkpt>
<trkpt lat="28.118318" lon="-17.285134">
<ele>1039.323000</ele>
<time>2009-06-06T14:33:33.000Z</time>
</trkpt>
<trkpt lat="28.118428" lon="-17.285327">
<ele>1039.323000</ele>
<time>2009-06-06T14:33:48.000Z</time>
</trkpt>
<trkpt lat="28.118427" lon="-17.285328">
<ele>1039.323000</ele>
<time>2009-06-06T14:33:50.000Z</time>
</trkpt>
<trkpt lat="28.118466" lon="-17.285380">
<ele>1039.323000</ele>
<time>2009-06-06T14:33:56.000Z</time>
</trkpt>
<trkpt lat="28.118571" lon="-17.285545">
<ele>1039.323000</ele>
<time>2009-06-06T14:34:11.000Z</time>
</trkpt>
<trkpt lat="28.118650" lon="-17.285703">
<ele>1038.361000</ele>
<time>2009-06-06T14:34:26.000Z</time>
</trkpt>
<trkpt lat="28.118786" lon="-17.285904">
<ele>1038.842000</ele>
<time>2009-06-06T14:34:43.000Z</time>
</trkpt>
<trkpt lat="28.118838" lon="-17.286088">
<ele>1039.323000</ele>
<time>2009-06-06T14:35:01.000Z</time>
</trkpt>
<trkpt lat="28.118906" lon="-17.286302">
<ele>1040.284000</ele>
<time>2009-06-06T14:35:21.000Z</time>
</trkpt>
<trkpt lat="28.118958" lon="-17.286430">
<ele>1041.245000</ele>
<time>2009-06-06T14:35:40.000Z</time>
</trkpt>
<trkpt lat="28.119081" lon="-17.286574">
<ele>1042.207000</ele>
<time>2009-06-06T14:35:56.000Z</time>
</trkpt>
<trkpt lat="28.119088" lon="-17.286608">
<ele>1042.207000</ele>
<time>2009-06-06T14:35:58.000Z</time>
</trkpt>
<trkpt lat="28.119151" lon="-17.286681">
<ele>1042.207000</ele>
<time>2009-06-06T14:36:13.000Z</time>
</trkpt>
<trkpt lat="28.119162" lon="-17.286709">
<ele>1042.687000</ele>
<time>2009-06-06T14:36:41.000Z</time>
</trkpt>
<trkpt lat="28.119155" lon="-17.286771">
<ele>1042.207000</ele>
<time>2009-06-06T14:37:05.000Z</time>
</trkpt>
<trkpt lat="28.119179" lon="-17.286598">
<ele>1041.245000</ele>
<time>2009-06-06T14:37:35.000Z</time>
</trkpt>
<trkpt lat="28.119124" lon="-17.286683">
<ele>1040.764000</ele>
<time>2009-06-06T14:39:15.000Z</time>
</trkpt>
<trkpt lat="28.119080" lon="-17.286741">
<ele>1040.764000</ele>
<time>2009-06-06T14:39:53.000Z</time>
</trkpt>
<trkpt lat="28.119062" lon="-17.286738">
<ele>1040.764000</ele>
<time>2009-06-06T14:40:53.000Z</time>
</trkpt>
<trkpt lat="28.119061" lon="-17.286712">
<ele>1040.764000</ele>
<time>2009-06-06T14:41:24.000Z</time>
</trkpt>
<trkpt lat="28.119201" lon="-17.286576">
<ele>1040.284000</ele>
<time>2009-06-06T14:43:11.000Z</time>
</trkpt>
<trkpt lat="28.119190" lon="-17.286575">
<ele>1040.764000</ele>
<time>2009-06-06T14:46:16.000Z</time>
</trkpt>
<trkpt lat="28.119192" lon="-17.286535">
<ele>1040.284000</ele>
<time>2009-06-06T14:49:17.000Z</time>
</trkpt>
<trkpt lat="28.119180" lon="-17.286564">
<ele>1040.764000</ele>
<time>2009-06-06T14:49:59.000Z</time>
</trkpt>
<trkpt lat="28.119198" lon="-17.286594">
<ele>1041.726000</ele>
<time>2009-06-06T14:54:46.000Z</time>
</trkpt>
<trkpt lat="28.119194" lon="-17.286645">
<ele>1037.400000</ele>
<time>2009-06-06T14:55:15.000Z</time>
</trkpt>
<trkpt lat="28.119193" lon="-17.286647">
<ele>1042.687000</ele>
<time>2009-06-06T14:55:16.000Z</time>
</trkpt>
<trkpt lat="28.119197" lon="-17.286658">
<ele>1041.245000</ele>
<time>2009-06-06T14:55:23.000Z</time>
</trkpt>
<trkpt lat="28.119164" lon="-17.286643">
<ele>1041.245000</ele>
<time>2009-06-06T14:55:39.000Z</time>
</trkpt>
<trkpt lat="28.119119" lon="-17.286661">
<ele>1041.245000</ele>
<time>2009-06-06T14:55:51.000Z</time>
</trkpt>
<trkpt lat="28.118996" lon="-17.286495">
<ele>1040.284000</ele>
<time>2009-06-06T14:57:45.000Z</time>
</trkpt>
<trkpt lat="28.118930" lon="-17.286425">
<ele>1040.764000</ele>
<time>2009-06-06T14:57:53.000Z</time>
</trkpt>
<trkpt lat="28.118898" lon="-17.286365">
<ele>1040.284000</ele>
<time>2009-06-06T14:58:12.000Z</time>
</trkpt>
<trkpt lat="28.118879" lon="-17.286332">
<ele>1037.881000</ele>
<time>2009-06-06T14:58:26.000Z</time>
</trkpt>
<trkpt lat="28.118819" lon="-17.286148">
<ele>1035.958000</ele>
<time>2009-06-06T14:59:05.000Z</time>
</trkpt>
<trkpt lat="28.118714" lon="-17.285940">
<ele>1034.516000</ele>
<time>2009-06-06T14:59:28.000Z</time>
</trkpt>
<trkpt lat="28.118556" lon="-17.285780">
<ele>1032.113000</ele>
<time>2009-06-06T14:59:48.000Z</time>
</trkpt>
<trkpt lat="28.118503" lon="-17.285645">
<ele>1031.632000</ele>
<time>2009-06-06T15:00:00.000Z</time>
</trkpt>
<trkpt lat="28.118474" lon="-17.285588">
<ele>1031.632000</ele>
<time>2009-06-06T15:00:07.000Z</time>
</trkpt>
<trkpt lat="28.118447" lon="-17.285564">
<ele>1031.632000</ele>
<time>2009-06-06T15:00:10.000Z</time>
</trkpt>
<trkpt lat="28.118367" lon="-17.285487">
<ele>1032.113000</ele>
<time>2009-06-06T15:00:18.000Z</time>
</trkpt>
<trkpt lat="28.118339" lon="-17.285432">
<ele>1032.113000</ele>
<time>2009-06-06T15:00:24.000Z</time>
</trkpt>
<trkpt lat="28.118253" lon="-17.285304">
<ele>1032.593000</ele>
<time>2009-06-06T15:00:39.000Z</time>
</trkpt>
<trkpt lat="28.118166" lon="-17.285144">
<ele>1031.632000</ele>
<time>2009-06-06T15:00:59.000Z</time>
</trkpt>
<trkpt lat="28.118091" lon="-17.284921">
<ele>1030.671000</ele>
<time>2009-06-06T15:01:20.000Z</time>
</trkpt>
<trkpt lat="28.117986" lon="-17.284915">
<ele>1029.229000</ele>
<time>2009-06-06T15:01:30.000Z</time>
</trkpt>
<trkpt lat="28.117828" lon="-17.284861">
<ele>1026.825000</ele>
<time>2009-06-06T15:01:46.000Z</time>
</trkpt>
<trkpt lat="28.117714" lon="-17.284802">
<ele>1028.267000</ele>
<time>2009-06-06T15:02:00.000Z</time>
</trkpt>
<trkpt lat="28.117615" lon="-17.284778">
<ele>1028.748000</ele>
<time>2009-06-06T15:02:11.000Z</time>
</trkpt>
<trkpt lat="28.117509" lon="-17.284743">
<ele>1029.709000</ele>
<time>2009-06-06T15:02:21.000Z</time>
</trkpt>
<trkpt lat="28.117445" lon="-17.284718">
<ele>1030.190000</ele>
<time>2009-06-06T15:02:27.000Z</time>
</trkpt>
<trkpt lat="28.117370" lon="-17.284785">
<ele>1030.190000</ele>
<time>2009-06-06T15:02:34.000Z</time>
</trkpt>
<trkpt lat="28.117346" lon="-17.284829">
<ele>1029.709000</ele>
<time>2009-06-06T15:02:36.000Z</time>
</trkpt>
<trkpt lat="28.117337" lon="-17.284983">
<ele>1029.709000</ele>
<time>2009-06-06T15:02:47.000Z</time>
</trkpt>
<trkpt lat="28.117349" lon="-17.285046">
<ele>1029.709000</ele>
<time>2009-06-06T15:02:52.000Z</time>
</trkpt>
<trkpt lat="28.117311" lon="-17.285178">
<ele>1029.229000</ele>
<time>2009-06-06T15:03:03.000Z</time>
</trkpt>
<trkpt lat="28.117246" lon="-17.285216">
<ele>1028.748000</ele>
<time>2009-06-06T15:03:15.000Z</time>
</trkpt>
<trkpt lat="28.117257" lon="-17.285253">
<ele>1028.748000</ele>
<time>2009-06-06T15:03:18.000Z</time>
</trkpt>
<trkpt lat="28.117238" lon="-17.285288">
<ele>1027.787000</ele>
<time>2009-06-06T15:03:36.000Z</time>
</trkpt>
<trkpt lat="28.117212" lon="-17.285441">
<ele>1026.825000</ele>
<time>2009-06-06T15:03:50.000Z</time>
</trkpt>
<trkpt lat="28.117218" lon="-17.285497">
<ele>1026.825000</ele>
<time>2009-06-06T15:03:54.000Z</time>
</trkpt>
<trkpt lat="28.117216" lon="-17.285567">
<ele>1027.306000</ele>
<time>2009-06-06T15:03:59.000Z</time>
</trkpt>
<trkpt lat="28.117222" lon="-17.285614">
<ele>1027.306000</ele>
<time>2009-06-06T15:04:02.000Z</time>
</trkpt>
<trkpt lat="28.117315" lon="-17.285749">
<ele>1027.787000</ele>
<time>2009-06-06T15:04:14.000Z</time>
</trkpt>
<trkpt lat="28.117269" lon="-17.285916">
<ele>1028.267000</ele>
<time>2009-06-06T15:04:28.000Z</time>
</trkpt>
<trkpt lat="28.117271" lon="-17.286030">
<ele>1027.787000</ele>
<time>2009-06-06T15:04:38.000Z</time>
</trkpt>
<trkpt lat="28.117235" lon="-17.286181">
<ele>1028.267000</ele>
<time>2009-06-06T15:04:51.000Z</time>
</trkpt>
<trkpt lat="28.117201" lon="-17.286241">
<ele>1027.787000</ele>
<time>2009-06-06T15:04:57.000Z</time>
</trkpt>
<trkpt lat="28.117160" lon="-17.286364">
<ele>1027.306000</ele>
<time>2009-06-06T15:05:07.000Z</time>
</trkpt>
<trkpt lat="28.117104" lon="-17.286419">
<ele>1026.825000</ele>
<time>2009-06-06T15:05:14.000Z</time>
</trkpt>
<trkpt lat="28.117070" lon="-17.286507">
<ele>1026.345000</ele>
<time>2009-06-06T15:05:21.000Z</time>
</trkpt>
<trkpt lat="28.117050" lon="-17.286532">
<ele>1026.345000</ele>
<time>2009-06-06T15:05:24.000Z</time>
</trkpt>
<trkpt lat="28.117046" lon="-17.286551">
<ele>1026.825000</ele>
<time>2009-06-06T15:05:27.000Z</time>
</trkpt>
<trkpt lat="28.117012" lon="-17.286578">
<ele>1026.345000</ele>
<time>2009-06-06T15:05:30.000Z</time>
</trkpt>
<trkpt lat="28.116997" lon="-17.286638">
<ele>1026.345000</ele>
<time>2009-06-06T15:05:34.000Z</time>
</trkpt>
<trkpt lat="28.116976" lon="-17.286773">
<ele>1025.864000</ele>
<time>2009-06-06T15:05:45.000Z</time>
</trkpt>
<trkpt lat="28.116943" lon="-17.286819">
<ele>1025.864000</ele>
<time>2009-06-06T15:05:49.000Z</time>
</trkpt>
<trkpt lat="28.116895" lon="-17.286961">
<ele>1024.903000</ele>
<time>2009-06-06T15:06:01.000Z</time>
</trkpt>
<trkpt lat="28.116796" lon="-17.287184">
<ele>1023.941000</ele>
<time>2009-06-06T15:06:20.000Z</time>
</trkpt>
<trkpt lat="28.116690" lon="-17.287344">
<ele>1023.941000</ele>
<time>2009-06-06T15:06:35.000Z</time>
</trkpt>
<trkpt lat="28.116631" lon="-17.287448">
<ele>1023.941000</ele>
<time>2009-06-06T15:06:56.000Z</time>
</trkpt>
<trkpt lat="28.116529" lon="-17.287615">
<ele>1022.980000</ele>
<time>2009-06-06T15:07:10.000Z</time>
</trkpt>
<trkpt lat="28.116417" lon="-17.287787">
<ele>1023.461000</ele>
<time>2009-06-06T15:07:25.000Z</time>
</trkpt>
<trkpt lat="28.116372" lon="-17.287790">
<ele>1023.461000</ele>
<time>2009-06-06T15:07:29.000Z</time>
</trkpt>
<trkpt lat="28.116227" lon="-17.287845">
<ele>1023.461000</ele>
<time>2009-06-06T15:07:44.000Z</time>
</trkpt>
<trkpt lat="28.116175" lon="-17.287892">
<ele>1022.980000</ele>
<time>2009-06-06T15:08:00.000Z</time>
</trkpt>
<trkpt lat="28.116111" lon="-17.287873">
<ele>1023.941000</ele>
<time>2009-06-06T15:09:31.000Z</time>
</trkpt>
<trkpt lat="28.115963" lon="-17.287839">
<ele>1022.980000</ele>
<time>2009-06-06T15:09:46.000Z</time>
</trkpt>
<trkpt lat="28.115875" lon="-17.287859">
<ele>1022.500000</ele>
<time>2009-06-06T15:09:53.000Z</time>
</trkpt>
<trkpt lat="28.115848" lon="-17.287847">
<ele>1022.500000</ele>
<time>2009-06-06T15:09:56.000Z</time>
</trkpt>
<trkpt lat="28.115807" lon="-17.287858">
<ele>1022.019000</ele>
<time>2009-06-06T15:09:59.000Z</time>
</trkpt>
<trkpt lat="28.115631" lon="-17.287824">
<ele>1022.500000</ele>
<time>2009-06-06T15:10:13.000Z</time>
</trkpt>
<trkpt lat="28.115470" lon="-17.287763">
<ele>1023.461000</ele>
<time>2009-06-06T15:10:27.000Z</time>
</trkpt>
<trkpt lat="28.115416" lon="-17.287744">
<ele>1022.980000</ele>
<time>2009-06-06T15:10:32.000Z</time>
</trkpt>
<trkpt lat="28.115325" lon="-17.287678">
<ele>1024.422000</ele>
<time>2009-06-06T15:10:43.000Z</time>
</trkpt>
<trkpt lat="28.115283" lon="-17.287656">
<ele>1025.383000</ele>
<time>2009-06-06T15:10:47.000Z</time>
</trkpt>
<trkpt lat="28.115257" lon="-17.287644">
<ele>1025.864000</ele>
<time>2009-06-06T15:10:50.000Z</time>
</trkpt>
<trkpt lat="28.115231" lon="-17.287643">
<ele>1026.345000</ele>
<time>2009-06-06T15:10:52.000Z</time>
</trkpt>
<trkpt lat="28.115117" lon="-17.287597">
<ele>1027.306000</ele>
<time>2009-06-06T15:11:03.000Z</time>
</trkpt>
<trkpt lat="28.115074" lon="-17.287582">
<ele>1027.787000</ele>
<time>2009-06-06T15:11:07.000Z</time>
</trkpt>
<trkpt lat="28.115045" lon="-17.287572">
<ele>1028.267000</ele>
<time>2009-06-06T15:11:10.000Z</time>
</trkpt>
<trkpt lat="28.114939" lon="-17.287545">
<ele>1029.709000</ele>
<time>2009-06-06T15:11:19.000Z</time>
</trkpt>
<trkpt lat="28.114921" lon="-17.287541">
<ele>1029.709000</ele>
<time>2009-06-06T15:11:21.000Z</time>
</trkpt>
<trkpt lat="28.114834" lon="-17.287504">
<ele>1031.151000</ele>
<time>2009-06-06T15:11:31.000Z</time>
</trkpt>
<trkpt lat="28.114794" lon="-17.287490">
<ele>1031.632000</ele>
<time>2009-06-06T15:11:46.000Z</time>
</trkpt>
<trkpt lat="28.114702" lon="-17.287383">
<ele>1032.593000</ele>
<time>2009-06-06T15:12:00.000Z</time>
</trkpt>
<trkpt lat="28.114601" lon="-17.287208">
<ele>1034.516000</ele>
<time>2009-06-06T15:12:19.000Z</time>
</trkpt>
<trkpt lat="28.114504" lon="-17.286955">
<ele>1037.400000</ele>
<time>2009-06-06T15:12:43.000Z</time>
</trkpt>
<trkpt lat="28.114457" lon="-17.286924">
<ele>1038.842000</ele>
<time>2009-06-06T15:12:49.000Z</time>
</trkpt>
<trkpt lat="28.114348" lon="-17.286858">
<ele>1038.842000</ele>
<time>2009-06-06T15:13:06.000Z</time>
</trkpt>
<trkpt lat="28.114328" lon="-17.286849">
<ele>1039.323000</ele>
<time>2009-06-06T15:13:28.000Z</time>
</trkpt>
<trkpt lat="28.114337" lon="-17.286737">
<ele>1036.919000</ele>
<time>2009-06-06T15:14:02.000Z</time>
</trkpt>
<trkpt lat="28.114326" lon="-17.286689">
<ele>1035.477000</ele>
<time>2009-06-06T15:14:20.000Z</time>
</trkpt>
<trkpt lat="28.114222" lon="-17.286635">
<ele>1033.554000</ele>
<time>2009-06-06T15:14:43.000Z</time>
</trkpt>
<trkpt lat="28.114152" lon="-17.286542">
<ele>1032.113000</ele>
<time>2009-06-06T15:15:00.000Z</time>
</trkpt>
<trkpt lat="28.114154" lon="-17.286486">
<ele>1031.151000</ele>
<time>2009-06-06T15:15:18.000Z</time>
</trkpt>
<trkpt lat="28.114091" lon="-17.286368">
<ele>1029.709000</ele>
<time>2009-06-06T15:15:35.000Z</time>
</trkpt>
<trkpt lat="28.114067" lon="-17.286343">
<ele>1028.748000</ele>
<time>2009-06-06T15:15:54.000Z</time>
</trkpt>
<trkpt lat="28.114006" lon="-17.286298">
<ele>1027.306000</ele>
<time>2009-06-06T15:16:22.000Z</time>
</trkpt>
<trkpt lat="28.113919" lon="-17.286223">
<ele>1025.383000</ele>
<time>2009-06-06T15:16:43.000Z</time>
</trkpt>
<trkpt lat="28.113855" lon="-17.286182">
<ele>1024.422000</ele>
<time>2009-06-06T15:17:01.000Z</time>
</trkpt>
<trkpt lat="28.113819" lon="-17.286087">
<ele>1022.500000</ele>
<time>2009-06-06T15:17:24.000Z</time>
</trkpt>
<trkpt lat="28.113770" lon="-17.285977">
<ele>1021.058000</ele>
<time>2009-06-06T15:17:41.000Z</time>
</trkpt>
<trkpt lat="28.113731" lon="-17.285894">
<ele>1020.577000</ele>
<time>2009-06-06T15:17:56.000Z</time>
</trkpt>
<trkpt lat="28.113689" lon="-17.285790">
<ele>1019.135000</ele>
<time>2009-06-06T15:18:13.000Z</time>
</trkpt>
<trkpt lat="28.113656" lon="-17.285686">
<ele>1017.693000</ele>
<time>2009-06-06T15:18:30.000Z</time>
</trkpt>
<trkpt lat="28.113626" lon="-17.285579">
<ele>1016.731000</ele>
<time>2009-06-06T15:18:45.000Z</time>
</trkpt>
<trkpt lat="28.113585" lon="-17.285502">
<ele>1015.290000</ele>
<time>2009-06-06T15:19:00.000Z</time>
</trkpt>
<trkpt lat="28.113479" lon="-17.285425">
<ele>1013.367000</ele>
<time>2009-06-06T15:19:18.000Z</time>
</trkpt>
<trkpt lat="28.113407" lon="-17.285356">
<ele>1011.925000</ele>
<time>2009-06-06T15:19:34.000Z</time>
</trkpt>
<trkpt lat="28.113356" lon="-17.285340">
<ele>1010.483000</ele>
<time>2009-06-06T15:19:48.000Z</time>
</trkpt>
<trkpt lat="28.113309" lon="-17.285358">
<ele>1007.118000</ele>
<time>2009-06-06T15:20:25.000Z</time>
</trkpt>
<trkpt lat="28.113279" lon="-17.285345">
<ele>1004.235000</ele>
<time>2009-06-06T15:21:01.000Z</time>
</trkpt>
<trkpt lat="28.113172" lon="-17.285263">
<ele>1002.312000</ele>
<time>2009-06-06T15:21:24.000Z</time>
</trkpt>
<trkpt lat="28.113123" lon="-17.285227">
<ele>1000.389000</ele>
<time>2009-06-06T15:21:49.000Z</time>
</trkpt>
<trkpt lat="28.113113" lon="-17.285219">
<ele>998.466300</ele>
<time>2009-06-06T15:22:19.000Z</time>
</trkpt>
<trkpt lat="28.113092" lon="-17.285236">
<ele>995.101800</ele>
<time>2009-06-06T15:22:55.000Z</time>
</trkpt>
<trkpt lat="28.112990" lon="-17.285284">
<ele>991.737300</ele>
<time>2009-06-06T15:24:02.000Z</time>
</trkpt>
<trkpt lat="28.112723" lon="-17.285487">
<ele>991.737300</ele>
<time>2009-06-06T15:24:35.000Z</time>
</trkpt>
<trkpt lat="28.112644" lon="-17.285546">
<ele>991.737300</ele>
<time>2009-06-06T15:25:07.000Z</time>
</trkpt>
<trkpt lat="28.112638" lon="-17.285358">
<ele>992.218000</ele>
<time>2009-06-06T15:26:17.000Z</time>
</trkpt>
<trkpt lat="28.112619" lon="-17.285377">
<ele>993.659900</ele>
<time>2009-06-06T15:26:53.000Z</time>
</trkpt>
<trkpt lat="28.112575" lon="-17.285447">
<ele>995.101800</ele>
<time>2009-06-06T15:27:14.000Z</time>
</trkpt>
<trkpt lat="28.112514" lon="-17.285479">
<ele>997.024400</ele>
<time>2009-06-06T15:27:30.000Z</time>
</trkpt>
<trkpt lat="28.112491" lon="-17.285574">
<ele>998.466300</ele>
<time>2009-06-06T15:27:50.000Z</time>
</trkpt>
<trkpt lat="28.112458" lon="-17.285661">
<ele>1000.870000</ele>
<time>2009-06-06T15:28:08.000Z</time>
</trkpt>
<trkpt lat="28.112279" lon="-17.285610">
<ele>1003.273000</ele>
<time>2009-06-06T15:28:24.000Z</time>
</trkpt>
<trkpt lat="28.112215" lon="-17.285697">
<ele>1004.235000</ele>
<time>2009-06-06T15:28:33.000Z</time>
</trkpt>
<trkpt lat="28.112162" lon="-17.285810">
<ele>1005.677000</ele>
<time>2009-06-06T15:28:47.000Z</time>
</trkpt>
<trkpt lat="28.112094" lon="-17.285916">
<ele>1008.560000</ele>
<time>2009-06-06T15:29:03.000Z</time>
</trkpt>
<trkpt lat="28.112049" lon="-17.285972">
<ele>1010.002000</ele>
<time>2009-06-06T15:29:16.000Z</time>
</trkpt>
<trkpt lat="28.111986" lon="-17.286093">
<ele>1010.483000</ele>
<time>2009-06-06T15:29:43.000Z</time>
</trkpt>
<trkpt lat="28.111927" lon="-17.286164">
<ele>1011.444000</ele>
<time>2009-06-06T15:29:55.000Z</time>
</trkpt>
<trkpt lat="28.111886" lon="-17.286238">
<ele>1012.886000</ele>
<time>2009-06-06T15:30:03.000Z</time>
</trkpt>
<trkpt lat="28.111870" lon="-17.286334">
<ele>1014.328000</ele>
<time>2009-06-06T15:30:15.000Z</time>
</trkpt>
<trkpt lat="28.111795" lon="-17.286426">
<ele>1016.731000</ele>
<time>2009-06-06T15:30:29.000Z</time>
</trkpt>
<trkpt lat="28.111723" lon="-17.286514">
<ele>1018.173000</ele>
<time>2009-06-06T15:30:41.000Z</time>
</trkpt>
<trkpt lat="28.111651" lon="-17.286571">
<ele>1018.654000</ele>
<time>2009-06-06T15:30:54.000Z</time>
</trkpt>
<trkpt lat="28.111642" lon="-17.286584">
<ele>1018.654000</ele>
<time>2009-06-06T15:30:55.000Z</time>
</trkpt>
<trkpt lat="28.111498" lon="-17.286605">
<ele>1019.135000</ele>
<time>2009-06-06T15:31:10.000Z</time>
</trkpt>
<trkpt lat="28.111486" lon="-17.286606">
<ele>1019.135000</ele>
<time>2009-06-06T15:31:11.000Z</time>
</trkpt>
<trkpt lat="28.111341" lon="-17.286712">
<ele>1019.135000</ele>
<time>2009-06-06T15:31:27.000Z</time>
</trkpt>
<trkpt lat="28.111193" lon="-17.286788">
<ele>1019.135000</ele>
<time>2009-06-06T15:31:42.000Z</time>
</trkpt>
<trkpt lat="28.111023" lon="-17.286927">
<ele>1019.135000</ele>
<time>2009-06-06T15:32:01.000Z</time>
</trkpt>
<trkpt lat="28.110945" lon="-17.287024">
<ele>1019.615000</ele>
<time>2009-06-06T15:32:09.000Z</time>
</trkpt>
<trkpt lat="28.110828" lon="-17.287129">
<ele>1020.577000</ele>
<time>2009-06-06T15:32:23.000Z</time>
</trkpt>
<trkpt lat="28.110780" lon="-17.287240">
<ele>1020.577000</ele>
<time>2009-06-06T15:32:34.000Z</time>
</trkpt>
<trkpt lat="28.110767" lon="-17.287230">
<ele>1022.019000</ele>
<time>2009-06-06T15:32:54.000Z</time>
</trkpt>
<trkpt lat="28.110775" lon="-17.287105">
<ele>1024.422000</ele>
<time>2009-06-06T15:33:16.000Z</time>
</trkpt>
<trkpt lat="28.110788" lon="-17.286974">
<ele>1026.825000</ele>
<time>2009-06-06T15:33:36.000Z</time>
</trkpt>
<trkpt lat="28.110815" lon="-17.286853">
<ele>1028.748000</ele>
<time>2009-06-06T15:33:51.000Z</time>
</trkpt>
<trkpt lat="28.110851" lon="-17.286790">
<ele>1030.671000</ele>
<time>2009-06-06T15:34:11.000Z</time>
</trkpt>
<trkpt lat="28.110875" lon="-17.286703">
<ele>1032.113000</ele>
<time>2009-06-06T15:34:26.000Z</time>
</trkpt>
<trkpt lat="28.110897" lon="-17.286573">
<ele>1033.074000</ele>
<time>2009-06-06T15:34:43.000Z</time>
</trkpt>
<trkpt lat="28.110900" lon="-17.286421">
<ele>1034.997000</ele>
<time>2009-06-06T15:35:04.000Z</time>
</trkpt>
<trkpt lat="28.110899" lon="-17.286281">
<ele>1036.439000</ele>
<time>2009-06-06T15:35:23.000Z</time>
</trkpt>
<trkpt lat="28.110942" lon="-17.286167">
<ele>1038.361000</ele>
<time>2009-06-06T15:35:44.000Z</time>
</trkpt>
<trkpt lat="28.110963" lon="-17.286005">
<ele>1039.803000</ele>
<time>2009-06-06T15:36:06.000Z</time>
</trkpt>
<trkpt lat="28.110984" lon="-17.285895">
<ele>1040.764000</ele>
<time>2009-06-06T15:36:18.000Z</time>
</trkpt>
<trkpt lat="28.110998" lon="-17.285770">
<ele>1041.245000</ele>
<time>2009-06-06T15:36:37.000Z</time>
</trkpt>
<trkpt lat="28.110989" lon="-17.285649">
<ele>1043.168000</ele>
<time>2009-06-06T15:36:55.000Z</time>
</trkpt>
<trkpt lat="28.110977" lon="-17.285527">
<ele>1044.129000</ele>
<time>2009-06-06T15:37:14.000Z</time>
</trkpt>
<trkpt lat="28.110988" lon="-17.285436">
<ele>1044.129000</ele>
<time>2009-06-06T15:37:24.000Z</time>
</trkpt>
<trkpt lat="28.110980" lon="-17.285399">
<ele>1044.610000</ele>
<time>2009-06-06T15:37:27.000Z</time>
</trkpt>
<trkpt lat="28.110974" lon="-17.285317">
<ele>1046.052000</ele>
<time>2009-06-06T15:37:41.000Z</time>
</trkpt>
<trkpt lat="28.110919" lon="-17.285181">
<ele>1046.532000</ele>
<time>2009-06-06T15:37:59.000Z</time>
</trkpt>
<trkpt lat="28.110953" lon="-17.285094">
<ele>1047.013000</ele>
<time>2009-06-06T15:38:19.000Z</time>
</trkpt>
<trkpt lat="28.110915" lon="-17.285013">
<ele>1048.455000</ele>
<time>2009-06-06T15:38:36.000Z</time>
</trkpt>
<trkpt lat="28.110803" lon="-17.284952">
<ele>1051.339000</ele>
<time>2009-06-06T15:38:55.000Z</time>
</trkpt>
<trkpt lat="28.110746" lon="-17.284827">
<ele>1053.742000</ele>
<time>2009-06-06T15:39:21.000Z</time>
</trkpt>
<trkpt lat="28.110711" lon="-17.284665">
<ele>1055.184000</ele>
<time>2009-06-06T15:39:35.000Z</time>
</trkpt>
<trkpt lat="28.110741" lon="-17.284572">
<ele>1055.184000</ele>
<time>2009-06-06T15:39:56.000Z</time>
</trkpt>
<trkpt lat="28.110763" lon="-17.284477">
<ele>1056.146000</ele>
<time>2009-06-06T15:40:03.000Z</time>
</trkpt>
<trkpt lat="28.110770" lon="-17.284409">
<ele>1056.626000</ele>
<time>2009-06-06T15:40:09.000Z</time>
</trkpt>
<trkpt lat="28.110821" lon="-17.284283">
<ele>1058.549000</ele>
<time>2009-06-06T15:40:21.000Z</time>
</trkpt>
<trkpt lat="28.110834" lon="-17.284171">
<ele>1060.471000</ele>
<time>2009-06-06T15:40:34.000Z</time>
</trkpt>
<trkpt lat="28.110839" lon="-17.284121">
<ele>1059.991000</ele>
<time>2009-06-06T15:40:39.000Z</time>
</trkpt>
<trkpt lat="28.110861" lon="-17.284066">
<ele>1059.991000</ele>
<time>2009-06-06T15:40:46.000Z</time>
</trkpt>
<trkpt lat="28.110894" lon="-17.283948">
<ele>1059.991000</ele>
<time>2009-06-06T15:40:57.000Z</time>
</trkpt>
<trkpt lat="28.110943" lon="-17.283782">
<ele>1059.030000</ele>
<time>2009-06-06T15:41:12.000Z</time>
</trkpt>
<trkpt lat="28.110916" lon="-17.283751">
<ele>1058.549000</ele>
<time>2009-06-06T15:41:24.000Z</time>
</trkpt>
<trkpt lat="28.110871" lon="-17.283744">
<ele>1059.510000</ele>
<time>2009-06-06T15:41:28.000Z</time>
</trkpt>
<trkpt lat="28.110786" lon="-17.283581">
<ele>1061.914000</ele>
<time>2009-06-06T15:41:43.000Z</time>
</trkpt>
<trkpt lat="28.110782" lon="-17.283533">
<ele>1061.914000</ele>
<time>2009-06-06T15:41:47.000Z</time>
</trkpt>
<trkpt lat="28.110827" lon="-17.283392">
<ele>1062.394000</ele>
<time>2009-06-06T15:41:59.000Z</time>
</trkpt>
<trkpt lat="28.110845" lon="-17.283281">
<ele>1062.875000</ele>
<time>2009-06-06T15:42:08.000Z</time>
</trkpt>
<trkpt lat="28.110840" lon="-17.283232">
<ele>1063.355000</ele>
<time>2009-06-06T15:42:12.000Z</time>
</trkpt>
<trkpt lat="28.110806" lon="-17.283180">
<ele>1063.836000</ele>
<time>2009-06-06T15:42:17.000Z</time>
</trkpt>
<trkpt lat="28.110759" lon="-17.283150">
<ele>1064.317000</ele>
<time>2009-06-06T15:42:22.000Z</time>
</trkpt>
<trkpt lat="28.110688" lon="-17.283084">
<ele>1065.759000</ele>
<time>2009-06-06T15:42:38.000Z</time>
</trkpt>
<trkpt lat="28.110585" lon="-17.283030">
<ele>1067.681000</ele>
<time>2009-06-06T15:42:52.000Z</time>
</trkpt>
<trkpt lat="28.110512" lon="-17.282933">
<ele>1069.604000</ele>
<time>2009-06-06T15:43:09.000Z</time>
</trkpt>
<trkpt lat="28.110421" lon="-17.282804">
<ele>1071.527000</ele>
<time>2009-06-06T15:43:26.000Z</time>
</trkpt>
<trkpt lat="28.110359" lon="-17.282716">
<ele>1074.411000</ele>
<time>2009-06-06T15:43:40.000Z</time>
</trkpt>
<trkpt lat="28.110287" lon="-17.282557">
<ele>1077.775000</ele>
<time>2009-06-06T15:43:58.000Z</time>
</trkpt>
<trkpt lat="28.110248" lon="-17.282458">
<ele>1079.698000</ele>
<time>2009-06-06T15:44:11.000Z</time>
</trkpt>
<trkpt lat="28.110245" lon="-17.282429">
<ele>1079.698000</ele>
<time>2009-06-06T15:44:39.000Z</time>
</trkpt>
<trkpt lat="28.110194" lon="-17.282344">
<ele>1081.140000</ele>
<time>2009-06-06T15:44:53.000Z</time>
</trkpt>
<trkpt lat="28.110174" lon="-17.282220">
<ele>1083.543000</ele>
<time>2009-06-06T15:45:09.000Z</time>
</trkpt>
<trkpt lat="28.110149" lon="-17.282145">
<ele>1084.985000</ele>
<time>2009-06-06T15:45:22.000Z</time>
</trkpt>
<trkpt lat="28.110104" lon="-17.282061">
<ele>1084.985000</ele>
<time>2009-06-06T15:45:33.000Z</time>
</trkpt>
<trkpt lat="28.110092" lon="-17.282051">
<ele>1085.466000</ele>
<time>2009-06-06T15:45:36.000Z</time>
</trkpt>
<trkpt lat="28.110082" lon="-17.281965">
<ele>1087.869000</ele>
<time>2009-06-06T15:45:44.000Z</time>
</trkpt>
<trkpt lat="28.110062" lon="-17.281891">
<ele>1090.272000</ele>
<time>2009-06-06T15:45:59.000Z</time>
</trkpt>
<trkpt lat="28.110033" lon="-17.281933">
<ele>1091.234000</ele>
<time>2009-06-06T15:46:13.000Z</time>
</trkpt>
<trkpt lat="28.109967" lon="-17.281961">
<ele>1091.234000</ele>
<time>2009-06-06T15:46:28.000Z</time>
</trkpt>
<trkpt lat="28.109966" lon="-17.281956">
<ele>1091.234000</ele>
<time>2009-06-06T15:46:49.000Z</time>
</trkpt>
</trkseg>
</trk>
</gpx>
